Observation data for Dozier on 06/25/2019      Previous  Date  Next       Current Mesonet Observations  Soil Data  Daily Summary Page  Observations in Plain Language
KDO1 250500Z 12002KT 22/15 A2996 RMK A01 T02170145  RH  064%=      5-min Rain = 0
KDO1 250501Z 11002KT 22/15 A2996 RMK A01 T02170145  RH  064%=      5-min Rain = 0
KDO1 250502Z 12003KT 22/15 A2996 RMK A01 T02170145  RH  064%=      5-min Rain = 0
KDO1 250503Z 11002KT 22/15 A2996 RMK A01 T02170146  RH  064%=      5-min Rain = 0
KDO1 250504Z 11002KT 22/15 A2996 RMK A01 T02180147  RH  064%=      5-min Rain = 0
KDO1 250505Z 10002KT 22/15 A2996 RMK A01 T02170146  RH  064%=      5-min Rain = 0
KDO1 250506Z 09003KT 22/15 A2996 RMK A01 T02170146  RH  064%=      5-min Rain = 0
KDO1 250507Z 10003KT 22/15 A2996 RMK A01 T02170147  RH  064%=      5-min Rain = 0
KDO1 250508Z 09003KT 22/15 A2996 RMK A01 T02170147  RH  064%=      5-min Rain = 0
KDO1 250509Z 09003KT 22/15 A2996 RMK A01 T02170147  RH  064%=      5-min Rain = 0
KDO1 250510Z 10004KT 22/15 A2996 RMK A01 T02170147  RH  065%=      5-min Rain = 0
KDO1 250511Z 10003KT 22/15 A2996 RMK A01 T02170147  RH  065%=      5-min Rain = 0
KDO1 250512Z 10004KT 22/15 A2996 RMK A01 T02170148  RH  065%=      5-min Rain = 0
KDO1 250513Z 11003KT 22/15 A2996 RMK A01 T02170149  RH  065%=      5-min Rain = 0
KDO1 250514Z 12004KT 22/15 A2996 RMK A01 T02170149  RH  065%=      5-min Rain = 0
KDO1 250515Z 12003KT 22/15 A2996 RMK A01 T02160149  RH  066%=      5-min Rain = 0
KDO1 250516Z 11003KT 22/15 A2996 RMK A01 T02160149  RH  066%=      5-min Rain = 0
KDO1 250517Z 12004KT 22/15 A2996 RMK A01 T02150149  RH  066%=      5-min Rain = 0
KDO1 250518Z 11003KT 22/15 A2996 RMK A01 T02150150  RH  066%=      5-min Rain = 0
KDO1 250519Z 11004KT 22/15 A2996 RMK A01 T02150150  RH  066%=      5-min Rain = 0
KDO1 250520Z 11003KT 22/15 A2996 RMK A01 T02150150  RH  066%=      5-min Rain = 0
KDO1 250521Z 11003KT 22/15 A2996 RMK A01 T02150150  RH  066%=      5-min Rain = 0
KDO1 250522Z 12004KT 22/15 A2996 RMK A01 T02150150  RH  066%=      5-min Rain = 0
KDO1 250523Z 11003KT 22/15 A2996 RMK A01 T02150151  RH  067%=      5-min Rain = 0
KDO1 250524Z 12004KT 22/15 A2996 RMK A01 T02150151  RH  067%=      5-min Rain = 0
KDO1 250525Z 11003KT 22/15 A2996 RMK A01 T02150151  RH  067%=      5-min Rain = 0
KDO1 250526Z 11003KT 21/15 A2996 RMK A01 T02140151  RH  067%=      5-min Rain = 0
KDO1 250527Z 11003KT 21/15 A2996 RMK A01 T02140152  RH  068%=      5-min Rain = 0
KDO1 250528Z 11003KT 21/15 A2996 RMK A01 T02140152  RH  068%=      5-min Rain = 0
KDO1 250529Z 11003KT 21/15 A2996 RMK A01 T02140152  RH  068%=      5-min Rain = 0
KDO1 250530Z 11003KT 21/15 A2996 RMK A01 T02140152  RH  068%=      5-min Rain = 0
KDO1 250531Z 11003KT 21/15 A2996 RMK A01 T02130152  RH  068%=      5-min Rain = 0
KDO1 250532Z 11003KT 21/15 A2996 RMK A01 T02130152  RH  068%=      5-min Rain = 0
KDO1 250533Z 11003KT 21/15 A2996 RMK A01 T02130152  RH  068%=      5-min Rain = 0
KDO1 250534Z 11003KT 21/15 A2995 RMK A01 T02130153  RH  068%=      5-min Rain = 0
KDO1 250535Z 12003KT 21/15 A2995 RMK A01 T02130153  RH  068%=      5-min Rain = 0
KDO1 250536Z 12003KT 21/15 A2995 RMK A01 T02130154  RH  069%=      5-min Rain = 0
KDO1 250537Z 12003KT 21/15 A2995 RMK A01 T02140154  RH  069%=      5-min Rain = 0
KDO1 250538Z 12003KT 21/15 A2995 RMK A01 T02140154  RH  069%=      5-min Rain = 0
KDO1 250539Z 11003KT 21/15 A2995 RMK A01 T02140154  RH  069%=      5-min Rain = 0
KDO1 250540Z 10003KT 22/16 A2995 RMK A01 T02150155  RH  069%=      5-min Rain = 0
KDO1 250541Z 10003KT 22/16 A2995 RMK A01 T02150155  RH  069%=      5-min Rain = 0
KDO1 250542Z 09003KT 22/16 A2995 RMK A01 T02150156  RH  069%=      5-min Rain = 0
KDO1 250543Z 10003KT 22/16 A2995 RMK A01 T02150156  RH  069%=      5-min Rain = 0
KDO1 250544Z 09003KT 21/16 A2995 RMK A01 T02140157  RH  070%=      5-min Rain = 0
KDO1 250545Z 10003KT 21/16 A2995 RMK A01 T02140156  RH  070%=      5-min Rain = 0
KDO1 250546Z 10003KT 21/16 A2995 RMK A01 T02130156  RH  070%=      5-min Rain = 0
KDO1 250547Z 10002KT 21/16 A2995 RMK A01 T02130157  RH  070%=      5-min Rain = 0
KDO1 250548Z 10002KT 21/16 A2995 RMK A01 T02120157  RH  071%=      5-min Rain = 0
KDO1 250549Z 10003KT 21/16 A2995 RMK A01 T02120157  RH  071%=      5-min Rain = 0
KDO1 250550Z 10002KT 21/16 A2995 RMK A01 T02110157  RH  071%=      5-min Rain = 0
KDO1 250551Z 09003KT 21/16 A2995 RMK A01 T02110157  RH  072%=      5-min Rain = 0
KDO1 250552Z 09003KT 21/16 A2995 RMK A01 T02100158  RH  072%=      5-min Rain = 0
KDO1 250553Z 09003KT 21/16 A2995 RMK A01 T02100158  RH  072%=      5-min Rain = 0
KDO1 250554Z 10003KT 21/16 A2995 RMK A01 T02100159  RH  072%=      5-min Rain = 0
KDO1 250555Z 09003KT 21/16 A2995 RMK A01 T02100159  RH  073%=      5-min Rain = 0
KDO1 250556Z 10003KT 21/16 A2995 RMK A01 T02100159  RH  073%=      5-min Rain = 0
KDO1 250557Z 09003KT 21/16 A2995 RMK A01 T02090160  RH  073%=      5-min Rain = 0
KDO1 250558Z 10003KT 21/16 A2995 RMK A01 T02090160  RH  073%=      5-min Rain = 0
KDO1 250559Z 10003KT 21/16 A2995 RMK A01 T02090161  RH  074%=      5-min Rain = 0
KDO1 250600Z 11003KT 21/16 A2995 RMK A01 T02100161  RH  074%=      5-min Rain = 0
KDO1 250601Z 11003KT 21/16 A2995 RMK A01 T02090161  RH  074%=      5-min Rain = 0
KDO1 250602Z 12003KT 21/16 A2995 RMK A01 T02090161  RH  074%=      5-min Rain = 0
KDO1 250603Z 12003KT 21/16 A2995 RMK A01 T02090162  RH  074%=      5-min Rain = 0
KDO1 250604Z 12003KT 21/16 A2995 RMK A01 T02090162  RH  074%=      5-min Rain = 0
KDO1 250605Z 12003KT 21/16 A2995 RMK A01 T02090162  RH  074%=      5-min Rain = 0
KDO1 250606Z 12003KT 21/16 A2995 RMK A01 T02090163  RH  075%=      5-min Rain = 0
KDO1 250607Z 13003KT 21/16 A2995 RMK A01 T02090163  RH  075%=      5-min Rain = 0
KDO1 250608Z 12003KT 21/16 A2995 RMK A01 T02100163  RH  075%=      5-min Rain = 0
KDO1 250609Z 12003KT 21/16 A2995 RMK A01 T02090163  RH  075%=      5-min Rain = 0
KDO1 250610Z 12002KT 21/16 A2995 RMK A01 T02090163  RH  075%=      5-min Rain = 0
KDO1 250611Z 12002KT 21/16 A2994 RMK A01 T02090163  RH  075%=      5-min Rain = 0
KDO1 250612Z 11003KT 21/16 A2994 RMK A01 T02090163  RH  075%=      5-min Rain = 0
KDO1 250613Z 11003KT 21/16 A2994 RMK A01 T02090164  RH  075%=      5-min Rain = 0
KDO1 250614Z 11003KT 21/16 A2994 RMK A01 T02090163  RH  075%=      5-min Rain = 0
KDO1 250615Z 11003KT 21/16 A2994 RMK A01 T02090163  RH  075%=      5-min Rain = 0
KDO1 250616Z 11003KT 21/16 A2994 RMK A01 T02090164  RH  075%=      5-min Rain = 0
KDO1 250617Z 12003KT 21/16 A2994 RMK A01 T02090164  RH  076%=      5-min Rain = 0
KDO1 250618Z 12003KT 21/16 A2994 RMK A01 T02090164  RH  076%=      5-min Rain = 0
KDO1 250619Z 13003KT 21/16 A2994 RMK A01 T02080164  RH  076%=      5-min Rain = 0
KDO1 250620Z 12003KT 21/17 A2994 RMK A01 T02090165  RH  076%=      5-min Rain = 0
KDO1 250621Z 12003KT 21/17 A2994 RMK A01 T02090165  RH  076%=      5-min Rain = 0
KDO1 250622Z 12003KT 21/17 A2994 RMK A01 T02080165  RH  076%=      5-min Rain = 0
KDO1 250623Z 12003KT 21/17 A2994 RMK A01 T02080165  RH  076%=      5-min Rain = 0
KDO1 250624Z 13003KT 21/17 A2994 RMK A01 T02080165  RH  077%=      5-min Rain = 0
KDO1 250625Z 13003KT 21/17 A2994 RMK A01 T02080165  RH  077%=      5-min Rain = 0
KDO1 250626Z 12003KT 21/17 A2994 RMK A01 T02070166  RH  077%=      5-min Rain = 0
KDO1 250627Z 12003KT 21/17 A2994 RMK A01 T02070166  RH  077%=      5-min Rain = 0
KDO1 250628Z 12003KT 21/17 A2994 RMK A01 T02060166  RH  078%=      5-min Rain = 0
KDO1 250629Z 11003KT 21/17 A2994 RMK A01 T02060166  RH  078%=      5-min Rain = 0
KDO1 250630Z 11003KT 21/17 A2994 RMK A01 T02060166  RH  078%=      5-min Rain = 0
KDO1 250631Z 11003KT 21/17 A2994 RMK A01 T02060166  RH  078%=      5-min Rain = 0
KDO1 250632Z 11003KT 21/17 A2994 RMK A01 T02060167  RH  078%=      5-min Rain = 0
KDO1 250633Z 11003KT 21/17 A2994 RMK A01 T02060167  RH  078%=      5-min Rain = 0
KDO1 250634Z 11003KT 21/17 A2994 RMK A01 T02050167  RH  079%=      5-min Rain = 0
KDO1 250635Z 12003KT 21/17 A2995 RMK A01 T02050167  RH  079%=      5-min Rain = 0
KDO1 250636Z 12003KT 21/17 A2995 RMK A01 T02050168  RH  079%=      5-min Rain = 0
KDO1 250637Z 12003KT 21/17 A2995 RMK A01 T02050168  RH  079%=      5-min Rain = 0
KDO1 250638Z 13003KT 21/17 A2995 RMK A01 T02050168  RH  079%=      5-min Rain = 0
KDO1 250639Z 14004KT 21/17 A2995 RMK A01 T02050168  RH  079%=      5-min Rain = 0
KDO1 250640Z 13003KT 21/17 A2995 RMK A01 T02050168  RH  079%=      5-min Rain = 0
KDO1 250641Z 14004KT 21/17 A2995 RMK A01 T02050169  RH  080%=      5-min Rain = 0
KDO1 250642Z 13003KT 20/17 A2995 RMK A01 T02040169  RH  080%=      5-min Rain = 0
KDO1 250643Z 13003KT 20/17 A2995 RMK A01 T02040169  RH  080%=      5-min Rain = 0
KDO1 250644Z 13003KT 21/17 A2995 RMK A01 T02050170  RH  080%=      5-min Rain = 0
KDO1 250645Z 13004KT 20/17 A2995 RMK A01 T02040170  RH  080%=      5-min Rain = 0
KDO1 250646Z 12003KT 21/17 A2995 RMK A01 T02050170  RH  080%=      5-min Rain = 0
KDO1 250647Z 13003KT 21/17 A2995 RMK A01 T02050170  RH  080%=      5-min Rain = 0
KDO1 250648Z 13003KT 21/17 A2995 RMK A01 T02050169  RH  080%=      5-min Rain = 0
KDO1 250649Z 14003KT 21/17 A2995 RMK A01 T02060170  RH  080%=      5-min Rain = 0
KDO1 250650Z 13004KT 21/17 A2995 RMK A01 T02060171  RH  080%=      5-min Rain = 0
KDO1 250651Z 13003KT 21/17 A2995 RMK A01 T02070171  RH  080%=      5-min Rain = 0
KDO1 250652Z 14004KT 21/17 A2995 RMK A01 T02070172  RH  080%=      5-min Rain = 0
KDO1 250653Z 15003KT 21/17 A2995 RMK A01 T02070172  RH  080%=      5-min Rain = 0
KDO1 250654Z 15003KT 21/17 A2995 RMK A01 T02080172  RH  080%=      5-min Rain = 0
KDO1 250655Z 15003KT 21/17 A2995 RMK A01 T02090173  RH  080%=      5-min Rain = 0
KDO1 250656Z 15004KT 21/17 A2995 RMK A01 T02090172  RH  080%=      5-min Rain = 0
KDO1 250657Z 16003KT 21/17 A2995 RMK A01 T02100172  RH  079%=      5-min Rain = 0
KDO1 250658Z 16004KT 21/17 A2995 RMK A01 T02100173  RH  079%=      5-min Rain = 0
KDO1 250659Z 16004KT 21/17 A2995 RMK A01 T02110173  RH  079%=      5-min Rain = 0
KDO1 250700Z 16004KT 21/17 A2995 RMK A01 T02120174  RH  079%=      5-min Rain = 0
KDO1 250701Z 16004KT 21/17 A2995 RMK A01 T02120174  RH  079%=      5-min Rain = 0
KDO1 250702Z 16004KT 21/18 A2995 RMK A01 T02130175  RH  079%=      5-min Rain = 0
KDO1 250703Z 16004KT 21/18 A2995 RMK A01 T02140176  RH  079%=      5-min Rain = 0
KDO1 250704Z 16004KT 21/18 A2995 RMK A01 T02140177  RH  079%=      5-min Rain = 0
KDO1 250705Z 16004KT 22/18 A2995 RMK A01 T02150178  RH  080%=      5-min Rain = 0
KDO1 250706Z 16005KT 22/18 A2995 RMK A01 T02160179  RH  080%=      5-min Rain = 0
KDO1 250707Z 16005KT 22/18 A2995 RMK A01 T02160180  RH  080%=      5-min Rain = 0
KDO1 250708Z 16005KT 22/18 A2995 RMK A01 T02170181  RH  080%=      5-min Rain = 0
KDO1 250709Z 16005KT 22/18 A2995 RMK A01 T02170181  RH  080%=      5-min Rain = 0
KDO1 250710Z 16005KT 22/18 A2995 RMK A01 T02180182  RH  080%=      5-min Rain = 0
KDO1 250711Z 16005KT 22/18 A2995 RMK A01 T02180183  RH  080%=      5-min Rain = 0
KDO1 250712Z 16005KT 22/18 A2995 RMK A01 T02180183  RH  080%=      5-min Rain = 0
KDO1 250713Z 16005KT 22/18 A2995 RMK A01 T02180184  RH  081%=      5-min Rain = 0
KDO1 250714Z 16005KT 22/18 A2995 RMK A01 T02180184  RH  081%=      5-min Rain = 0
KDO1 250715Z 16005KT 22/19 A2995 RMK A01 T02180185  RH  081%=      5-min Rain = 0
KDO1 250716Z 16004KT 22/19 A2995 RMK A01 T02180185  RH  082%=      5-min Rain = 0
KDO1 250717Z 16005KT 22/19 A2995 RMK A01 T02180186  RH  082%=      5-min Rain = 0
KDO1 250718Z 17004KT 22/19 A2995 RMK A01 T02180186  RH  082%=      5-min Rain = 0
KDO1 250719Z 16005KT 22/19 A2995 RMK A01 T02170187  RH  083%=      5-min Rain = 0
KDO1 250720Z 16004KT 22/19 A2995 RMK A01 T02170187  RH  083%=      5-min Rain = 0
KDO1 250721Z 16004KT 22/19 A2995 RMK A01 T02170187  RH  083%=      5-min Rain = 0
KDO1 250722Z 16004KT 22/19 A2995 RMK A01 T02160187  RH  084%=      5-min Rain = 0
KDO1 250723Z 16004KT 22/19 A2995 RMK A01 T02160187  RH  084%=      5-min Rain = 0
KDO1 250724Z 17005KT 22/19 A2995 RMK A01 T02160188  RH  084%=      5-min Rain = 0
KDO1 250725Z 16005KT 22/19 A2995 RMK A01 T02160188  RH  084%=      5-min Rain = 0
KDO1 250726Z 16005KT 22/19 A2995 RMK A01 T02150188  RH  084%=      5-min Rain = 0
KDO1 250727Z 16005KT 22/19 A2995 RMK A01 T02150188  RH  085%=      5-min Rain = 0
KDO1 250728Z 16004KT 22/19 A2995 RMK A01 T02160189  RH  085%=      5-min Rain = 0
KDO1 250729Z 16005KT 22/19 A2995 RMK A01 T02160190  RH  085%=      5-min Rain = 0
KDO1 250730Z 17004KT 22/19 A2995 RMK A01 T02160190  RH  085%=      5-min Rain = 0
KDO1 250731Z 16004KT 22/19 A2995 RMK A01 T02160191  RH  085%=      5-min Rain = 0
KDO1 250732Z 17005KT 22/19 A2995 RMK A01 T02160191  RH  085%=      5-min Rain = 0
KDO1 250733Z 16005KT 22/19 A2995 RMK A01 T02160191  RH  086%=      5-min Rain = 0
KDO1 250734Z 17004KT 22/19 A2995 RMK A01 T02160192  RH  086%=      5-min Rain = 0
KDO1 250735Z 17005KT 22/19 A2995 RMK A01 T02160192  RH  086%=      5-min Rain = 0
KDO1 250736Z 17005KT 22/19 A2995 RMK A01 T02160192  RH  086%=      5-min Rain = 0
KDO1 250737Z 17005KT 22/19 A2995 RMK A01 T02170193  RH  087%=      5-min Rain = 0
KDO1 250738Z 17005KT 22/19 A2995 RMK A01 T02160194  RH  087%=      5-min Rain = 0
KDO1 250739Z 17005KT 22/19 A2995 RMK A01 T02160194  RH  087%=      5-min Rain = 0
KDO1 250740Z 17005KT 22/20 A2995 RMK A01 T02160195  RH  087%=      5-min Rain = 0
KDO1 250741Z 17005KT 22/20 A2995 RMK A01 T02160195  RH  088%=      5-min Rain = 0
KDO1 250742Z 17005KT 22/20 A2995 RMK A01 T02160195  RH  088%=      5-min Rain = 0
KDO1 250743Z 17005KT 22/20 A2995 RMK A01 T02150195  RH  088%=      5-min Rain = 0
KDO1 250744Z 17005KT 22/20 A2995 RMK A01 T02150195  RH  089%=      5-min Rain = 0
KDO1 250745Z 17006KT 22/20 A2995 RMK A01 T02150196  RH  089%=      5-min Rain = 0
KDO1 250746Z 17006KT 22/20 A2995 RMK A01 T02150197  RH  090%=      5-min Rain = 0
KDO1 250747Z 17006KT 21/20 A2995 RMK A01 T02140197  RH  090%=      5-min Rain = 0
KDO1 250748Z 17005KT 22/20 A2995 RMK A01 T02150199  RH  090%=      5-min Rain = 0
KDO1 250749Z 17004KT 22/20 A2995 RMK A01 T02160199  RH  090%=      5-min Rain = 0
KDO1 250750Z 16005KT 22/20 A2995 RMK A01 T02160199  RH  090%=      5-min Rain = 0
KDO1 250751Z 17005KT 22/20 A2995 RMK A01 T02170200  RH  090%=      5-min Rain = 0
KDO1 250752Z 16005KT 22/20 A2995 RMK A01 T02170200  RH  090%=      5-min Rain = 0
KDO1 250753Z 16004KT 22/20 A2995 RMK A01 T02170201  RH  090%=      5-min Rain = 0
KDO1 250754Z 16005KT 22/20 A2995 RMK A01 T02180202  RH  090%=      5-min Rain = 0
KDO1 250755Z 16004KT 22/20 A2995 RMK A01 T02190202  RH  090%=      5-min Rain = 0
KDO1 250756Z 16005KT 22/20 A2995 RMK A01 T02190203  RH  090%=      5-min Rain = 0
KDO1 250757Z 16005KT 22/20 A2995 RMK A01 T02200204  RH  090%=      5-min Rain = 0
KDO1 250758Z 17004KT 22/20 A2995 RMK A01 T02210204  RH  090%=      5-min Rain = 0
KDO1 250759Z 15004KT 22/20 A2995 RMK A01 T02210204  RH  090%=      5-min Rain = 0
KDO1 250800Z 16003KT 22/20 A2995 RMK A01 T02220204  RH  090%=      5-min Rain = 0
KDO1 250801Z 17004KT 22/21 A2995 RMK A01 T02220205  RH  090%=      5-min Rain = 0
KDO1 250802Z 16004KT 22/21 A2995 RMK A01 T02220205  RH  090%=      5-min Rain = 0
KDO1 250803Z 16005KT 22/21 A2995 RMK A01 T02220206  RH  090%=      5-min Rain = 0
KDO1 250804Z 15006KT 22/21 A2995 RMK A01 T02230206  RH  090%=      5-min Rain = 0
KDO1 250805Z 15005KT 22/21 A2995 RMK A01 T02230207  RH  091%=      5-min Rain = 0
KDO1 250806Z 15006KT 22/21 A2996 RMK A01 T02230208  RH  091%=      5-min Rain = 0
KDO1 250807Z 16006KT 22/21 A2996 RMK A01 T02240209  RH  091%=      5-min Rain = 0
KDO1 250808Z 16006KT 23/21 A2996 RMK A01 T02250209  RH  091%=      5-min Rain = 0
KDO1 250809Z 15006KT 23/21 A2996 RMK A01 T02250210  RH  091%=      5-min Rain = 0
KDO1 250810Z 15005KT 23/21 A2996 RMK A01 T02260209  RH  091%=      5-min Rain = 0
KDO1 250811Z 15006KT 23/21 A2996 RMK A01 T02260210  RH  091%=      5-min Rain = 0
KDO1 250812Z 14006KT 23/21 A2996 RMK A01 T02250210  RH  091%=      5-min Rain = 0
KDO1 250813Z 15007KT 23/21 A2996 RMK A01 T02250210  RH  091%=      5-min Rain = 0
KDO1 250814Z 14006KT 23/21 A2996 RMK A01 T02250211  RH  092%=      5-min Rain = 0
KDO1 250815Z 15005KT 23/21 A2996 RMK A01 T02250211  RH  092%=      5-min Rain = 0
KDO1 250816Z 15006KT 22/21 A2996 RMK A01 T02240211  RH  092%=      5-min Rain = 0
KDO1 250817Z 16008KT 23/21 A2996 RMK A01 T02250212  RH  092%=      5-min Rain = 0
KDO1 250818Z 16007KT 22/21 A2996 RMK A01 T02240212  RH  092%=      5-min Rain = 0
KDO1 250819Z 16006KT 22/21 A2996 RMK A01 T02240212  RH  092%=      5-min Rain = 0
KDO1 250820Z 15007KT 22/21 A2996 RMK A01 T02240212  RH  093%=      5-min Rain = 0
KDO1 250821Z 15007KT 22/21 A2996 RMK A01 T02240212  RH  093%=      5-min Rain = 0
KDO1 250822Z 15006KT 22/21 A2996 RMK A01 T02240212  RH  093%=      5-min Rain = 0
KDO1 250823Z 15007KT 22/21 A2996 RMK A01 T02230212  RH  093%=      5-min Rain = 0
KDO1 250824Z 15007KT 22/21 A2996 RMK A01 T02230212  RH  093%=      5-min Rain = 0
KDO1 250825Z 15007KT 22/21 A2996 RMK A01 T02230212  RH  093%=      5-min Rain = 0
KDO1 250826Z 15007KT 22/21 A2996 RMK A01 T02230212  RH  094%=      5-min Rain = 0
KDO1 250827Z 15006KT 22/21 A2996 RMK A01 T02220212  RH  094%=      5-min Rain = 0
KDO1 250828Z 15006KT 22/21 A2996 RMK A01 T02220212  RH  094%=      5-min Rain = 0
KDO1 250829Z 15007KT 22/21 A2996 RMK A01 T02220213  RH  094%=      5-min Rain = 0
KDO1 250830Z 15008KT 22/21 A2996 RMK A01 T02220212  RH  095%=      5-min Rain = 0
KDO1 250831Z 15006KT 22/21 A2996 RMK A01 T02220213  RH  095%=      5-min Rain = 0
KDO1 250832Z 15007KT 22/21 A2996 RMK A01 T02220213  RH  094%=      5-min Rain = 0
KDO1 250833Z 15008KT 22/21 A2996 RMK A01 T02220213  RH  095%=      5-min Rain = 0
KDO1 250834Z 15007KT 22/21 A2996 RMK A01 T02220213  RH  095%=      5-min Rain = 0
KDO1 250835Z 15007KT 22/21 A2996 RMK A01 T02220213  RH  095%=      5-min Rain = 0
KDO1 250836Z 15007KT 22/21 A2996 RMK A01 T02220213  RH  095%=      5-min Rain = 0
KDO1 250837Z 15007KT 22/21 A2996 RMK A01 T02220213  RH  095%=      5-min Rain = 0
KDO1 250838Z 15005KT 22/21 A2996 RMK A01 T02220213  RH  095%=      5-min Rain = 0
KDO1 250839Z 15006KT 22/21 A2996 RMK A01 T02210213  RH  095%=      5-min Rain = 0
KDO1 250840Z 16006KT 22/21 A2996 RMK A01 T02210213  RH  095%=      5-min Rain = 0
KDO1 250841Z 16007KT 22/21 A2996 RMK A01 T02210213  RH  095%=      5-min Rain = 0
KDO1 250842Z 15006KT 22/21 A2996 RMK A01 T02200213  RH  096%=      5-min Rain = 0
KDO1 250843Z 15006KT 22/21 A2996 RMK A01 T02200213  RH  096%=      5-min Rain = 0
KDO1 250844Z 15006KT 22/21 A2996 RMK A01 T02200213  RH  096%=      5-min Rain = 0
KDO1 250845Z 15006KT 22/21 A2996 RMK A01 T02200213  RH  096%=      5-min Rain = 0
KDO1 250846Z 15006KT 22/21 A2995 RMK A01 T02190213  RH  096%=      5-min Rain = 0
KDO1 250847Z 15006KT 22/21 A2995 RMK A01 T02190213  RH  096%=      5-min Rain = 0
KDO1 250848Z 15005KT 22/21 A2995 RMK A01 T02180213  RH  097%=      5-min Rain = 0
KDO1 250849Z 15004KT 22/21 A2995 RMK A01 T02180213  RH  097%=      5-min Rain = 0
KDO1 250850Z 15006KT 22/21 A2995 RMK A01 T02180213  RH  097%=      5-min Rain = 0
KDO1 250851Z 15006KT 22/21 A2995 RMK A01 T02170213  RH  097%=      5-min Rain = 0
KDO1 250852Z 14005KT 22/21 A2995 RMK A01 T02170213  RH  097%=      5-min Rain = 0
KDO1 250853Z 14005KT 22/21 A2995 RMK A01 T02170213  RH  097%=      5-min Rain = 0
KDO1 250854Z 14005KT 22/21 A2995 RMK A01 T02170213  RH  097%=      5-min Rain = 0
KDO1 250855Z 14005KT 22/21 A2995 RMK A01 T02170213  RH  098%=      5-min Rain = 0
KDO1 250856Z 14005KT 22/21 A2995 RMK A01 T02160213  RH  098%=      5-min Rain = 0
KDO1 250857Z 14005KT 22/21 A2995 RMK A01 T02160213  RH  098%=      5-min Rain = 0
KDO1 250858Z 14005KT 22/21 A2995 RMK A01 T02160213  RH  098%=      5-min Rain = 0
KDO1 250859Z 14005KT 22/21 A2995 RMK A01 T02160213  RH  098%=      5-min Rain = 0
KDO1 250900Z 14005KT 22/21 A2995 RMK A01 T02160213  RH  098%=      5-min Rain = 0
KDO1 250901Z 14005KT 22/21 A2995 RMK A01 T02150213  RH  098%=      5-min Rain = 0
KDO1 250902Z 14005KT 22/21 A2996 RMK A01 T02150213  RH  098%=      5-min Rain = 0
KDO1 250903Z 14005KT 22/21 A2996 RMK A01 T02150213  RH  099%=      5-min Rain = 0
KDO1 250904Z 14004KT 22/21 A2996 RMK A01 T02150213  RH  099%=      5-min Rain = 0
KDO1 250905Z 13004KT 21/21 A2996 RMK A01 T02140212  RH  099%=      5-min Rain = 0
KDO1 250906Z 12003KT 21/21 A2996 RMK A01 T02140212  RH  099%=      5-min Rain = 0
KDO1 250907Z 12003KT 21/21 A2996 RMK A01 T02130212  RH  099%=      5-min Rain = 0
KDO1 250908Z 12003KT 21/21 A2996 RMK A01 T02120212  RH  100%=      5-min Rain = 0
KDO1 250909Z 12003KT 21/21 A2996 RMK A01 T02120212  RH  100%=      5-min Rain = 0
KDO1 250910Z 12003KT 21/21 A2995 RMK A01 T02110211  RH  100%=      5-min Rain = 0
KDO1 250911Z 11003KT 21/21 A2995 RMK A01 T02110211  RH  100%=      5-min Rain = 0
KDO1 250912Z 12002KT 21/21 A2995 RMK A01 T02100210  RH  100%=      5-min Rain = 0
KDO1 250913Z 12002KT 21/21 A2995 RMK A01 T02100210  RH  100%=      5-min Rain = 0
KDO1 250914Z 12001KT 21/21 A2995 RMK A01 T02090209  RH  100%=      5-min Rain = 0
KDO1 250915Z 12002KT 21/21 A2995 RMK A01 T02090209  RH  100%=      5-min Rain = 0
KDO1 250916Z 12002KT 21/21 A2995 RMK A01 T02090209  RH  100%=      5-min Rain = 0
KDO1 250917Z 12002KT 21/21 A2995 RMK A01 T02090209  RH  100%=      5-min Rain = 0
KDO1 250918Z 12002KT 21/21 A2995 RMK A01 T02080208  RH  100%=      5-min Rain = 0
KDO1 250919Z 12002KT 21/21 A2995 RMK A01 T02080208  RH  100%=      5-min Rain = 0
KDO1 250920Z 12002KT 21/21 A2995 RMK A01 T02080208  RH  100%=      5-min Rain = 0
KDO1 250921Z 12002KT 21/21 A2995 RMK A01 T02080208  RH  100%=      5-min Rain = 0
KDO1 250922Z 13002KT 21/21 A2995 RMK A01 T02080208  RH  100%=      5-min Rain = 0
KDO1 250923Z 14002KT 21/21 A2995 RMK A01 T02070207  RH  100%=      5-min Rain = 0
KDO1 250924Z 14002KT 21/21 A2995 RMK A01 T02070207  RH  100%=      5-min Rain = 0
KDO1 250925Z 13002KT 21/21 A2995 RMK A01 T02070207  RH  100%=      5-min Rain = 0
KDO1 250926Z 13002KT 21/21 A2995 RMK A01 T02060206  RH  100%=      5-min Rain = 0
KDO1 250927Z 13002KT 21/21 A2995 RMK A01 T02060206  RH  100%=      5-min Rain = 0
KDO1 250928Z 12002KT 21/21 A2995 RMK A01 T02060206  RH  100%=      5-min Rain = 0
KDO1 250929Z 14002KT 21/21 A2995 RMK A01 T02060206  RH  100%=      5-min Rain = 0
KDO1 250930Z 14003KT 21/21 A2996 RMK A01 T02060206  RH  100%=      5-min Rain = 0
KDO1 250931Z 15002KT 21/21 A2996 RMK A01 T02060206  RH  100%=      5-min Rain = 0
KDO1 250932Z 14003KT 21/21 A2996 RMK A01 T02060206  RH  100%=      5-min Rain = 0
KDO1 250933Z 15002KT 21/21 A2996 RMK A01 T02060207  RH  100%=      5-min Rain = 0
KDO1 250934Z 14003KT 21/21 A2996 RMK A01 T02060206  RH  100%=      5-min Rain = 0
KDO1 250935Z 14003KT 21/21 A2996 RMK A01 T02060206  RH  100%=      5-min Rain = 0
KDO1 250936Z 14003KT 21/21 A2996 RMK A01 T02060206  RH  100%=      5-min Rain = 0
KDO1 250937Z 14002KT 21/21 A2996 RMK A01 T02060206  RH  100%=      5-min Rain = 0
KDO1 250938Z 14002KT 21/21 A2996 RMK A01 T02060206  RH  100%=      5-min Rain = 0
KDO1 250939Z 14002KT 21/21 A2996 RMK A01 T02050205  RH  100%=      5-min Rain = 0
KDO1 250940Z 15002KT 21/21 A2996 RMK A01 T02050205  RH  100%=      5-min Rain = 0
KDO1 250941Z 15002KT 21/21 A2996 RMK A01 T02050205  RH  100%=      5-min Rain = 0
KDO1 250942Z 15003KT 21/21 A2996 RMK A01 T02050205  RH  100%=      5-min Rain = 0
KDO1 250943Z 14003KT 21/21 A2996 RMK A01 T02050205  RH  100%=      5-min Rain = 0
KDO1 250944Z 14003KT 20/20 A2996 RMK A01 T02040204  RH  100%=      5-min Rain = 0
KDO1 250945Z 14003KT 20/20 A2996 RMK A01 T02040204  RH  100%=      5-min Rain = 0
KDO1 250946Z 14003KT 20/20 A2996 RMK A01 T02040204  RH  100%=      5-min Rain = 0
KDO1 250947Z 15003KT 20/20 A2996 RMK A01 T02040204  RH  100%=      5-min Rain = 0
KDO1 250948Z 15002KT 20/20 A2996 RMK A01 T02040204  RH  100%=      5-min Rain = 0
KDO1 250949Z 15002KT 20/20 A2996 RMK A01 T02040204  RH  100%=      5-min Rain = 0
KDO1 250950Z 15002KT 20/20 A2996 RMK A01 T02040204  RH  100%=      5-min Rain = 0
KDO1 250951Z 15002KT 20/20 A2996 RMK A01 T02040204  RH  100%=      5-min Rain = 0
KDO1 250952Z 15002KT 20/20 A2996 RMK A01 T02040204  RH  100%=      5-min Rain = 0
KDO1 250953Z 15001KT 20/20 A2996 RMK A01 T02040204  RH  100%=      5-min Rain = 0
KDO1 250954Z 16002KT 20/20 A2996 RMK A01 T02040204  RH  100%=      5-min Rain = 0
KDO1 250955Z 16002KT 20/20 A2996 RMK A01 T02040204  RH  100%=      5-min Rain = 0
KDO1 250956Z 17002KT 20/20 A2996 RMK A01 T02030204  RH  100%=      5-min Rain = 0
KDO1 250957Z 18002KT 20/20 A2996 RMK A01 T02030203  RH  100%=      5-min Rain = 0
KDO1 250958Z 18002KT 20/20 A2996 RMK A01 T02030203  RH  100%=      5-min Rain = 0
KDO1 250959Z 19002KT 20/20 A2996 RMK A01 T02030203  RH  100%=      5-min Rain = 0
KDO1 251000Z 20002KT 20/20 A2996 RMK A01 T02030203  RH  100%=      5-min Rain = 0
KDO1 251001Z 20002KT 20/20 A2996 RMK A01 T02030203  RH  100%=      5-min Rain = 0
KDO1 251002Z 21002KT 20/20 A2996 RMK A01 T02030203  RH  100%=      5-min Rain = 0
KDO1 251003Z 20002KT 20/20 A2996 RMK A01 T02030203  RH  100%=      5-min Rain = 0
KDO1 251004Z 22002KT 20/20 A2996 RMK A01 T02030203  RH  100%=      5-min Rain = 0
KDO1 251005Z 21002KT 20/20 A2996 RMK A01 T02020202  RH  100%=      5-min Rain = 0
KDO1 251006Z 20002KT 20/20 A2996 RMK A01 T02020202  RH  100%=      5-min Rain = 0
KDO1 251007Z 21002KT 20/20 A2996 RMK A01 T02020202  RH  100%=      5-min Rain = 0
KDO1 251008Z 21002KT 20/20 A2997 RMK A01 T02020202  RH  100%=      5-min Rain = 0
KDO1 251009Z 21002KT 20/20 A2997 RMK A01 T02020202  RH  100%=      5-min Rain = 0
KDO1 251010Z 21002KT 20/20 A2997 RMK A01 T02020202  RH  100%=      5-min Rain = 0
KDO1 251011Z 21002KT 20/20 A2997 RMK A01 T02020202  RH  100%=      5-min Rain = 0
KDO1 251012Z 21002KT 20/20 A2997 RMK A01 T02020202  RH  100%=      5-min Rain = 0
KDO1 251013Z 21003KT 20/20 A2997 RMK A01 T02020202  RH  100%=      5-min Rain = 0
KDO1 251014Z 21003KT 20/20 A2997 RMK A01 T02020202  RH  100%=      5-min Rain = 0
KDO1 251015Z 21004KT 20/20 A2997 RMK A01 T02020202  RH  100%=      5-min Rain = 0
KDO1 251016Z 21004KT 20/20 A2997 RMK A01 T02020202  RH  100%=      5-min Rain = 0
KDO1 251017Z 21003KT 20/20 A2997 RMK A01 T02020202  RH  100%=      5-min Rain = 0
KDO1 251018Z 22004KT 20/20 A2997 RMK A01 T02020202  RH  100%=      5-min Rain = 0
KDO1 251019Z 22004KT 20/20 A2997 RMK A01 T02020202  RH  100%=      5-min Rain = 0
KDO1 251020Z 22004KT 20/20 A2997 RMK A01 T02020202  RH  100%=      5-min Rain = 0
KDO1 251021Z 21004KT 20/20 A2997 RMK A01 T02020202  RH  100%=      5-min Rain = 0
KDO1 251022Z 21004KT 20/20 A2997 RMK A01 T02020202  RH  100%=      5-min Rain = 0
KDO1 251023Z 21004KT 20/20 A2997 RMK A01 T02020202  RH  100%=      5-min Rain = 0
KDO1 251024Z 21004KT 20/20 A2997 RMK A01 T02020203  RH  100%=      5-min Rain = 0
KDO1 251025Z 21003KT 20/20 A2997 RMK A01 T02030203  RH  100%=      5-min Rain = 0
KDO1 251026Z 20003KT 20/20 A2997 RMK A01 T02030203  RH  100%=      5-min Rain = 0
KDO1 251027Z 19003KT 20/20 A2997 RMK A01 T02030204  RH  100%=      5-min Rain = 0
KDO1 251028Z 20003KT 20/20 A2997 RMK A01 T02040204  RH  100%=      5-min Rain = 0
KDO1 251029Z 21003KT 20/20 A2997 RMK A01 T02040204  RH  100%=      5-min Rain = 0
KDO1 251030Z 21002KT 21/21 A2997 RMK A01 T02050205  RH  100%=      5-min Rain = 0
KDO1 251031Z 22003KT 21/21 A2997 RMK A01 T02050205  RH  100%=      5-min Rain = 0
KDO1 251032Z 22003KT 21/21 A2997 RMK A01 T02050205  RH  100%=      5-min Rain = 0
KDO1 251033Z 22003KT 21/21 A2997 RMK A01 T02060206  RH  100%=      5-min Rain = 0
KDO1 251034Z 22003KT 21/21 A2997 RMK A01 T02060206  RH  100%=      5-min Rain = 0
KDO1 251035Z 22002KT 21/21 A2997 RMK A01 T02050205  RH  100%=      5-min Rain = 0
KDO1 251036Z 22002KT 21/21 A2997 RMK A01 T02050205  RH  100%=      5-min Rain = 0
KDO1 251037Z 21002KT 21/21 A2997 RMK A01 T02050205  RH  100%=      5-min Rain = 0
KDO1 251038Z 20003KT 21/21 A2997 RMK A01 T02060206  RH  100%=      5-min Rain = 0
KDO1 251039Z 20003KT 21/21 A2997 RMK A01 T02050205  RH  100%=      5-min Rain = 0
KDO1 251040Z 20003KT 21/21 A2997 RMK A01 T02050205  RH  100%=      5-min Rain = 0
KDO1 251041Z 21003KT 21/21 A2997 RMK A01 T02050205  RH  100%=      5-min Rain = 0
KDO1 251042Z 20003KT 21/21 A2997 RMK A01 T02050205  RH  100%=      5-min Rain = 0
KDO1 251043Z 21003KT 20/20 A2997 RMK A01 T02040204  RH  100%=      5-min Rain = 0
KDO1 251044Z 21002KT 20/20 A2997 RMK A01 T02040204  RH  100%=      5-min Rain = 0
KDO1 251045Z 21002KT 20/20 A2997 RMK A01 T02040204  RH  100%=      5-min Rain = 0
KDO1 251046Z 21002KT 20/20 A2997 RMK A01 T02030204  RH  100%=      5-min Rain = 0
KDO1 251047Z 20002KT 20/20 A2997 RMK A01 T02030204  RH  100%=      5-min Rain = 0
KDO1 251048Z 20002KT 20/20 A2997 RMK A01 T02030203  RH  100%=      5-min Rain = 0
KDO1 251049Z 19002KT 20/20 A2997 RMK A01 T02030203  RH  100%=      5-min Rain = 0
KDO1 251050Z 18002KT 20/20 A2997 RMK A01 T02030203  RH  100%=      5-min Rain = 0
KDO1 251051Z 19002KT 20/20 A2997 RMK A01 T02030203  RH  100%=      5-min Rain = 0
KDO1 251052Z 19002KT 20/20 A2997 RMK A01 T02030203  RH  100%=      5-min Rain = 0
KDO1 251053Z 19002KT 20/20 A2997 RMK A01 T02030203  RH  100%=      5-min Rain = 0
KDO1 251054Z 18002KT 20/20 A2997 RMK A01 T02020202  RH  100%=      5-min Rain = 0
KDO1 251055Z 18002KT 20/20 A2997 RMK A01 T02030203  RH  100%=      5-min Rain = 0
KDO1 251056Z 18002KT 20/20 A2997 RMK A01 T02030203  RH  100%=      5-min Rain = 0
KDO1 251057Z 17002KT 20/20 A2997 RMK A01 T02030203  RH  100%=      5-min Rain = 0
KDO1 251058Z 18003KT 20/20 A2997 RMK A01 T02020202  RH  100%=      5-min Rain = 0
KDO1 251059Z 17003KT 20/20 A2997 RMK A01 T02020202  RH  100%=      5-min Rain = 0
KDO1 251100Z 16003KT 20/20 A2997 RMK A01 T02020202  RH  100%=      5-min Rain = 0
KDO1 251101Z 16003KT 20/20 A2997 RMK A01 T02020202  RH  100%=      5-min Rain = 0
KDO1 251102Z 16003KT 20/20 A2997 RMK A01 T02020202  RH  100%=      5-min Rain = 0
KDO1 251103Z 16003KT 20/20 A2997 RMK A01 T02020202  RH  100%=      5-min Rain = 0
KDO1 251104Z 16003KT 20/20 A2997 RMK A01 T02020202  RH  100%=      5-min Rain = 0
KDO1 251105Z 15003KT 20/20 A2997 RMK A01 T02020202  RH  100%=      5-min Rain = 0
KDO1 251106Z 14003KT 20/20 A2997 RMK A01 T02010202  RH  100%=      5-min Rain = 0
KDO1 251107Z 14003KT 20/20 A2997 RMK A01 T02010201  RH  100%=      5-min Rain = 0
KDO1 251108Z 14004KT 20/20 A2997 RMK A01 T02010201  RH  100%=      5-min Rain = 0
KDO1 251109Z 15004KT 20/20 A2997 RMK A01 T02000200  RH  100%=      5-min Rain = 0
KDO1 251110Z 15004KT 20/20 A2997 RMK A01 T02000200  RH  100%=      5-min Rain = 0
KDO1 251111Z 15004KT 20/20 A2997 RMK A01 T02000201  RH  100%=      5-min Rain = 0
KDO1 251112Z 16004KT 20/20 A2997 RMK A01 T02010201  RH  100%=      5-min Rain = 0
KDO1 251113Z 16004KT 20/20 A2997 RMK A01 T02010201  RH  100%=      5-min Rain = 0
KDO1 251114Z 15004KT 20/20 A2997 RMK A01 T02010201  RH  100%=      5-min Rain = 0
KDO1 251115Z 16004KT 20/20 A2997 RMK A01 T02010201  RH  100%=      5-min Rain = 0
KDO1 251116Z 16004KT 20/20 A2997 RMK A01 T02010202  RH  100%=      5-min Rain = 0
KDO1 251117Z 16004KT 20/20 A2997 RMK A01 T02010201  RH  100%=      5-min Rain = 0
KDO1 251118Z 16004KT 20/20 A2997 RMK A01 T02010201  RH  100%=      5-min Rain = 0
KDO1 251119Z 16004KT 20/20 A2997 RMK A01 T02010201  RH  100%=      5-min Rain = 0
KDO1 251120Z 17003KT 20/20 A2997 RMK A01 T02010201  RH  100%=      5-min Rain = 0
KDO1 251121Z 17004KT 20/20 A2997 RMK A01 T02010201  RH  100%=      5-min Rain = 0
KDO1 251122Z 17004KT 20/20 A2997 RMK A01 T02010201  RH  100%=      5-min Rain = 0
KDO1 251123Z 16004KT 20/20 A2997 RMK A01 T02010201  RH  100%=      5-min Rain = 0
KDO1 251124Z 17003KT 20/20 A2997 RMK A01 T02010201  RH  100%=      5-min Rain = 0
KDO1 251125Z 17003KT 20/20 A2997 RMK A01 T02010201  RH  100%=      5-min Rain = 0
KDO1 251126Z 17003KT 20/20 A2997 RMK A01 T02010201  RH  100%=      5-min Rain = 0
KDO1 251127Z 18004KT 20/20 A2997 RMK A01 T02010201  RH  100%=      5-min Rain = 0
KDO1 251128Z 18004KT 20/20 A2997 RMK A01 T02010201  RH  100%=      5-min Rain = 0
KDO1 251129Z 18004KT 20/20 A2997 RMK A01 T02000200  RH  100%=      5-min Rain = 0
KDO1 251130Z 18003KT 20/20 A2997 RMK A01 T02000200  RH  100%=      5-min Rain = 0
KDO1 251131Z 18003KT 20/20 A2997 RMK A01 T02000200  RH  100%=      5-min Rain = 0
KDO1 251132Z 18003KT 20/20 A2997 RMK A01 T02000200  RH  100%=      5-min Rain = 0
KDO1 251133Z 18003KT 20/20 A2997 RMK A01 T02000200  RH  100%=      5-min Rain = 0
KDO1 251134Z 18003KT 20/20 A2997 RMK A01 T01990200  RH  100%=      5-min Rain = 0
KDO1 251135Z 17003KT 20/20 A2997 RMK A01 T01990199  RH  100%=      5-min Rain = 0
KDO1 251136Z 17003KT 20/20 A2997 RMK A01 T01990199  RH  100%=      5-min Rain = 0
KDO1 251137Z 17003KT 20/20 A2997 RMK A01 T01990199  RH  100%=      5-min Rain = 0
KDO1 251138Z 17003KT 20/20 A2997 RMK A01 T01990199  RH  100%=      5-min Rain = 0
KDO1 251139Z 18003KT 20/20 A2998 RMK A01 T01990199  RH  100%=      5-min Rain = 0
KDO1 251140Z 18003KT 20/20 A2998 RMK A01 T01990199  RH  100%=      5-min Rain = 0
KDO1 251141Z 18003KT 20/20 A2997 RMK A01 T01990200  RH  100%=      5-min Rain = 0
KDO1 251142Z 18003KT 20/20 A2997 RMK A01 T01990199  RH  100%=      5-min Rain = 0
KDO1 251143Z 18003KT 20/20 A2997 RMK A01 T01990199  RH  100%=      5-min Rain = 0
KDO1 251144Z 18003KT 20/20 A2998 RMK A01 T01990199  RH  100%=      5-min Rain = 0
KDO1 251145Z 17003KT 20/20 A2998 RMK A01 T01990199  RH  100%=      5-min Rain = 0
KDO1 251146Z 17004KT 20/20 A2998 RMK A01 T01990199  RH  100%=      5-min Rain = 0
KDO1 251147Z 17004KT 20/20 A2998 RMK A01 T01990199  RH  100%=      5-min Rain = 0
KDO1 251148Z 16004KT 20/20 A2998 RMK A01 T01990199  RH  100%=      5-min Rain = 0
KDO1 251149Z 16004KT 20/20 A2998 RMK A01 T01990199  RH  100%=      5-min Rain = 0
KDO1 251150Z 16003KT 20/20 A2998 RMK A01 T01990199  RH  100%=      5-min Rain = 0
KDO1 251151Z 16003KT 20/20 A2998 RMK A01 T01990199  RH  100%=      5-min Rain = 0
KDO1 251152Z 15003KT 20/20 A2998 RMK A01 T01990199  RH  100%=      5-min Rain = 0
KDO1 251153Z 15003KT 20/20 A2998 RMK A01 T01990199  RH  100%=      5-min Rain = 0
KDO1 251154Z 15004KT 20/20 A2998 RMK A01 T01990199  RH  100%=      5-min Rain = 0
KDO1 251155Z 15003KT 20/20 A2998 RMK A01 T01990199  RH  100%=      5-min Rain = 0
KDO1 251156Z 15002KT 20/20 A2998 RMK A01 T01990199  RH  100%=      5-min Rain = 0
KDO1 251157Z 15002KT 20/20 A2998 RMK A01 T01980199  RH  100%=      5-min Rain = 0
KDO1 251158Z 15002KT 20/20 A2998 RMK A01 T01980198  RH  100%=      5-min Rain = 0
KDO1 251159Z 15002KT 20/20 A2998 RMK A01 T01980198  RH  100%=      5-min Rain = 0
KDO1 251200Z 15002KT 20/20 A2998 RMK A01 T01980198  RH  100%=      5-min Rain = 0
KDO1 251201Z 16002KT 20/20 A2998 RMK A01 T01980198  RH  100%=      5-min Rain = 0
KDO1 251202Z 17002KT 20/20 A2998 RMK A01 T01980198  RH  100%=      5-min Rain = 0
KDO1 251203Z 16002KT 20/20 A2998 RMK A01 T01980198  RH  100%=      5-min Rain = 0
KDO1 251204Z 17002KT 20/20 A2998 RMK A01 T01980198  RH  100%=      5-min Rain = 0
KDO1 251205Z 17003KT 20/20 A2998 RMK A01 T01990199  RH  100%=      5-min Rain = 0
KDO1 251206Z 17003KT 20/20 A2998 RMK A01 T01990199  RH  100%=      5-min Rain = 0
KDO1 251207Z 17004KT 20/20 A2998 RMK A01 T02000200  RH  100%=      5-min Rain = 0
KDO1 251208Z 17003KT 20/20 A2998 RMK A01 T02000200  RH  100%=      5-min Rain = 0
KDO1 251209Z 17003KT 20/20 A2998 RMK A01 T02000200  RH  100%=      5-min Rain = 0
KDO1 251210Z 17003KT 20/20 A2998 RMK A01 T02000200  RH  100%=      5-min Rain = 0
KDO1 251211Z 17003KT 20/20 A2998 RMK A01 T02010201  RH  100%=      5-min Rain = 0
KDO1 251212Z 17003KT 20/20 A2998 RMK A01 T02010201  RH  100%=      5-min Rain = 0
KDO1 251213Z 16003KT 20/20 A2998 RMK A01 T02010201  RH  100%=      5-min Rain = 0
KDO1 251214Z 15004KT 20/20 A2998 RMK A01 T02010201  RH  100%=      5-min Rain = 0
KDO1 251215Z 16003KT 20/20 A2998 RMK A01 T02020202  RH  100%=      5-min Rain = 0
KDO1 251216Z 16003KT 20/20 A2998 RMK A01 T02020202  RH  100%=      5-min Rain = 0
KDO1 251217Z 16003KT 20/20 A2999 RMK A01 T02030203  RH  100%=      5-min Rain = 0
KDO1 251218Z 15003KT 20/20 A2999 RMK A01 T02030203  RH  100%=      5-min Rain = 0
KDO1 251219Z 16004KT 20/20 A2999 RMK A01 T02040204  RH  100%=      5-min Rain = 0
KDO1 251220Z 15003KT 20/20 A2999 RMK A01 T02040204  RH  100%=      5-min Rain = 0
KDO1 251221Z 16003KT 20/21 A2999 RMK A01 T02040205  RH  100%=      5-min Rain = 0
KDO1 251222Z 15002KT 21/21 A2998 RMK A01 T02050205  RH  100%=      5-min Rain = 0
KDO1 251223Z 15002KT 21/21 A2998 RMK A01 T02060206  RH  100%=      5-min Rain = 0
KDO1 251224Z 15002KT 21/21 A2998 RMK A01 T02060206  RH  100%=      5-min Rain = 0
KDO1 251225Z 15002KT 21/21 A2998 RMK A01 T02060206  RH  100%=      5-min Rain = 0
KDO1 251226Z 14002KT 21/21 A2998 RMK A01 T02060207  RH  100%=      5-min Rain = 0
KDO1 251227Z 16003KT 21/21 A2998 RMK A01 T02060206  RH  100%=      5-min Rain = 0
KDO1 251228Z 16003KT 21/21 A2998 RMK A01 T02070207  RH  100%=      5-min Rain = 0
KDO1 251229Z 17004KT 21/21 A2998 RMK A01 T02070208  RH  100%=      5-min Rain = 0
KDO1 251230Z 17005KT 21/21 A2998 RMK A01 T02080208  RH  100%=      5-min Rain = 0
KDO1 251231Z 18006KT 21/21 A2998 RMK A01 T02080209  RH  100%=      5-min Rain = 0
KDO1 251232Z 18006KT 21/21 A2998 RMK A01 T02090209  RH  100%=      5-min Rain = 0
KDO1 251233Z 17004KT 21/21 A2998 RMK A01 T02090209  RH  100%=      5-min Rain = 0
KDO1 251234Z 18004KT 21/21 A2998 RMK A01 T02090209  RH  100%=      5-min Rain = 0
KDO1 251235Z 18005KT 21/21 A2998 RMK A01 T02100210  RH  100%=      5-min Rain = 0
KDO1 251236Z 18005KT 21/21 A2999 RMK A01 T02100211  RH  100%=      5-min Rain = 0
KDO1 251237Z 18006KT 21/21 A2999 RMK A01 T02110211  RH  100%=      5-min Rain = 0
KDO1 251238Z 18005KT 21/21 A2999 RMK A01 T02110211  RH  100%=      5-min Rain = 0
KDO1 251239Z 17005KT 21/21 A2999 RMK A01 T02110211  RH  100%=      5-min Rain = 0
KDO1 251240Z 17006KT 21/21 A2999 RMK A01 T02110211  RH  100%=      5-min Rain = 0
KDO1 251241Z 17006KT 21/21 A2999 RMK A01 T02110211  RH  100%=      5-min Rain = 0
KDO1 251242Z 17004KT 21/21 A2999 RMK A01 T02110211  RH  100%=      5-min Rain = 0
KDO1 251243Z 17004KT 21/21 A2999 RMK A01 T02110211  RH  100%=      5-min Rain = 0
KDO1 251244Z 17005KT 21/21 A2999 RMK A01 T02120212  RH  100%=      5-min Rain = 0
KDO1 251245Z 18006KT 21/21 A2999 RMK A01 T02120212  RH  100%=      5-min Rain = 0
KDO1 251246Z 17004KT 21/21 A2999 RMK A01 T02120212  RH  100%=      5-min Rain = 0
KDO1 251247Z 17005KT 21/21 A2999 RMK A01 T02120213  RH  100%=      5-min Rain = 0
KDO1 251248Z 18005KT 21/21 A2999 RMK A01 T02130213  RH  100%=      5-min Rain = 0
KDO1 251249Z 18006KT 21/21 A2999 RMK A01 T02130213  RH  100%=      5-min Rain = 0
KDO1 251250Z 18006KT 21/21 A2999 RMK A01 T02130213  RH  100%=      5-min Rain = 0
KDO1 251251Z 19006KT 21/21 A2999 RMK A01 T02130213  RH  100%=      5-min Rain = 0
KDO1 251252Z 19006KT 21/21 A30 RMK A01 T02130213  RH  100%=      5-min Rain = 0
KDO1 251253Z 18006KT 21/21 A30 RMK A01 T02130213  RH  100%=      5-min Rain = 0
KDO1 251254Z 19005KT 21/21 A30 RMK A01 T02140214  RH  100%=      5-min Rain = 0
KDO1 251255Z 18006KT 21/22 A30 RMK A01 T02140215  RH  100%=      5-min Rain = 0
KDO1 251256Z 19006KT 22/22 A30 RMK A01 T02150215  RH  100%=      5-min Rain = 0
KDO1 251257Z 19006KT 22/22 A30 RMK A01 T02150215  RH  100%=      5-min Rain = 0
KDO1 251258Z 21006KT 22/22 A30 RMK A01 T02150216  RH  100%=      5-min Rain = 0
KDO1 251259Z 20008KT 22/22 A30 RMK A01 T02160216  RH  100%=      5-min Rain = 0
KDO1 251300Z 20008KT 22/22 A30 RMK A01 T02160216  RH  100%=      5-min Rain = 0
KDO1 251301Z 20009KT 22/22 A30 RMK A01 T02160216  RH  100%=      5-min Rain = 0
KDO1 251302Z 20009KT 22/22 A30 RMK A01 T02150216  RH  100%=      5-min Rain = 0
KDO1 251303Z 20009KT 22/22 A30 RMK A01 T02150215  RH  100%=      5-min Rain = 0
KDO1 251304Z 20009KT 22/22 A30 RMK A01 T02150215  RH  100%=      5-min Rain = 0
KDO1 251305Z 21007KT 22/22 A30 RMK A01 T02150215  RH  100%=      5-min Rain = 0
KDO1 251306Z 20008KT 22/22 A30 RMK A01 T02150215  RH  100%=      5-min Rain = 0
KDO1 251307Z 19010KT 22/22 A30 RMK A01 T02150215  RH  100%=      5-min Rain = 0
KDO1 251308Z 20008KT 22/22 A30 RMK A01 T02150215  RH  100%=      5-min Rain = 0
KDO1 251309Z 21007KT 22/22 A30 RMK A01 T02150215  RH  100%=      5-min Rain = 0
KDO1 251310Z 21007KT 22/22 A30 RMK A01 T02150215  RH  100%=      5-min Rain = 0
KDO1 251311Z 20008KT 22/22 A30 RMK A01 T02160216  RH  100%=      5-min Rain = 0
KDO1 251312Z 20007KT 22/22 A30 RMK A01 T02160216  RH  100%=      5-min Rain = 0
KDO1 251313Z 21007KT 22/22 A30 RMK A01 T02170217  RH  100%=      5-min Rain = 0
KDO1 251314Z 22009KT 22/22 A30 RMK A01 T02170217  RH  100%=      5-min Rain = 0
KDO1 251315Z 22009KT 22/22 A30 RMK A01 T02170217  RH  100%=      5-min Rain = 0
KDO1 251316Z 21008KT 22/22 A30 RMK A01 T02170217  RH  100%=      5-min Rain = 0
KDO1 251317Z 21010KT 22/22 A30 RMK A01 T02170217  RH  100%=      5-min Rain = 0
KDO1 251318Z 22008KT 22/22 A30 RMK A01 T02160217  RH  100%=      5-min Rain = 0
KDO1 251319Z 22008KT 22/22 A30 RMK A01 T02170217  RH  100%=      5-min Rain = 0
KDO1 251320Z 21011KT 22/22 A30 RMK A01 T02160216  RH  100%=      5-min Rain = 0
KDO1 251321Z 21010KT 22/22 A30 RMK A01 T02160216  RH  100%=      5-min Rain = 0
KDO1 251322Z 21009KT 22/22 A30 RMK A01 T02160216  RH  100%=      5-min Rain = 0
KDO1 251323Z 21008KT 22/22 A30 RMK A01 T02160216  RH  100%=      5-min Rain = 0
KDO1 251324Z 21008KT 22/22 A30 RMK A01 T02160216  RH  100%=      5-min Rain = 0
KDO1 251325Z 21009KT 22/22 A30 RMK A01 T02170217  RH  100%=      5-min Rain = 0
KDO1 251326Z 21008KT 22/22 A30 RMK A01 T02170217  RH  100%=      5-min Rain = 0
KDO1 251327Z 21007KT 22/22 A30 RMK A01 T02170217  RH  100%=      5-min Rain = 0
KDO1 251328Z 21005KT 22/22 A30 RMK A01 T02180218  RH  100%=      5-min Rain = 0
KDO1 251329Z 21005KT 22/22 A30 RMK A01 T02190220  RH  100%=      5-min Rain = 0
KDO1 251330Z 22005KT 22/22 A30 RMK A01 T02210221  RH  100%=      5-min Rain = 0
KDO1 251331Z 22004KT 22/22 A30 RMK A01 T02230223  RH  100%=      5-min Rain = 0
KDO1 251332Z 22005KT 22/22 A30 RMK A01 T02240223  RH  099%=      5-min Rain = 0
KDO1 251333Z 22005KT 23/22 A30 RMK A01 T02250223  RH  098%=      5-min Rain = 0
KDO1 251334Z 23005KT 23/22 A30 RMK A01 T02260223  RH  098%=      5-min Rain = 0
KDO1 251335Z 22006KT 23/22 A30 RMK A01 T02270221  RH  096%=      5-min Rain = 0
KDO1 251336Z 21006KT 23/22 A30 RMK A01 T02280219  RH  095%=      5-min Rain = 0
KDO1 251337Z 21005KT 23/22 A30 RMK A01 T02280220  RH  096%=      5-min Rain = 0
KDO1 251338Z 22005KT 23/22 A30 RMK A01 T02280219  RH  095%=      5-min Rain = 0
KDO1 251339Z 22005KT 23/22 A30 RMK A01 T02290220  RH  095%=      5-min Rain = 0
KDO1 251340Z 22005KT 23/22 A30 RMK A01 T02310219  RH  093%=      5-min Rain = 0
KDO1 251341Z 20004KT 23/22 A30 RMK A01 T02310220  RH  093%=      5-min Rain = 0
KDO1 251342Z 21006KT 23/22 A30 RMK A01 T02330219  RH  092%=      5-min Rain = 0
KDO1 251343Z 22006KT 23/22 A30 RMK A01 T02340218  RH  091%=      5-min Rain = 0
KDO1 251344Z 21005KT 23/22 A30 RMK A01 T02340218  RH  091%=      5-min Rain = 0
KDO1 251345Z 21005KT 23/22 A30 RMK A01 T02340219  RH  091%=      5-min Rain = 0
KDO1 251346Z 19005KT 24/22 A30 RMK A01 T02350219  RH  091%=      5-min Rain = 0
KDO1 251347Z 20005KT 24/22 A30 RMK A01 T02360217  RH  089%=      5-min Rain = 0
KDO1 251348Z 22005KT 24/22 A30 RMK A01 T02360217  RH  089%=      5-min Rain = 0
KDO1 251349Z 23005KT 24/22 A30 RMK A01 T02360217  RH  089%=      5-min Rain = 0
KDO1 251350Z 21004KT 24/22 A30 RMK A01 T02360216  RH  089%=      5-min Rain = 0
KDO1 251351Z 20003KT 24/22 A30 RMK A01 T02370217  RH  089%=      5-min Rain = 0
KDO1 251352Z 19005KT 24/22 A30 RMK A01 T02380217  RH  088%=      5-min Rain = 0
KDO1 251353Z 20004KT 24/22 A30 RMK A01 T02390218  RH  088%=      5-min Rain = 0
KDO1 251354Z 19005KT 24/22 A3001 RMK A01 T02410218  RH  087%=      5-min Rain = 0
KDO1 251355Z 20004KT 24/22 A3001 RMK A01 T02420219  RH  087%=      5-min Rain = 0
KDO1 251356Z 20006KT 24/22 A3001 RMK A01 T02420217  RH  086%=      5-min Rain = 0
KDO1 251357Z 20005KT 24/22 A3001 RMK A01 T02420216  RH  086%=      5-min Rain = 0
KDO1 251358Z 22004KT 24/22 A30 RMK A01 T02410217  RH  086%=      5-min Rain = 0
KDO1 251359Z 22003KT 24/22 A30 RMK A01 T02390215  RH  086%=      5-min Rain = 0
KDO1 251400Z 23003KT 24/22 A30 RMK A01 T02380216  RH  087%=      5-min Rain = 0
KDO1 251401Z 21006KT 24/22 A30 RMK A01 T02370215  RH  087%=      5-min Rain = 0
KDO1 251402Z 20005KT 24/22 A30 RMK A01 T02370215  RH  088%=      5-min Rain = 0
KDO1 251403Z 20005KT 24/21 A30 RMK A01 T02360214  RH  087%=      5-min Rain = 0
KDO1 251404Z 20004KT 24/21 A30 RMK A01 T02370214  RH  087%=      5-min Rain = 0
KDO1 251405Z 20003KT 24/21 A30 RMK A01 T02380214  RH  086%=      5-min Rain = 0
KDO1 251406Z 19003KT 24/22 A30 RMK A01 T02390216  RH  087%=      5-min Rain = 0
KDO1 251407Z 21003KT 24/21 A3001 RMK A01 T02410214  RH  085%=      5-min Rain = 0
KDO1 251408Z 17004KT 24/21 A3001 RMK A01 T02420213  RH  084%=      5-min Rain = 0
KDO1 251409Z 17004KT 24/22 A3001 RMK A01 T02430215  RH  085%=      5-min Rain = 0
KDO1 251410Z 18004KT 25/22 A3001 RMK A01 T02450215  RH  084%=      5-min Rain = 0
KDO1 251411Z 17005KT 25/22 A3001 RMK A01 T02470216  RH  082%=      5-min Rain = 0
KDO1 251412Z 15004KT 25/22 A3001 RMK A01 T02490215  RH  081%=      5-min Rain = 0
KDO1 251413Z 16004KT 25/21 A3001 RMK A01 T02500214  RH  080%=      5-min Rain = 0
KDO1 251414Z 17006KT 25/22 A3001 RMK A01 T02520217  RH  081%=      5-min Rain = 0
KDO1 251415Z 17005KT 25/21 A3001 RMK A01 T02520214  RH  079%=      5-min Rain = 0
KDO1 251416Z 18005KT 25/22 A3001 RMK A01 T02530216  RH  080%=      5-min Rain = 0
KDO1 251417Z 18005KT 25/22 A3001 RMK A01 T02530215  RH  079%=      5-min Rain = 0
KDO1 251418Z 18003KT 25/22 A3001 RMK A01 T02530215  RH  079%=      5-min Rain = 0
KDO1 251419Z 19006KT 25/22 A3001 RMK A01 T02530217  RH  080%=      5-min Rain = 0
KDO1 251420Z 18006KT 25/21 A3001 RMK A01 T02530214  RH  079%=      5-min Rain = 0
KDO1 251421Z 19004KT 25/21 A3001 RMK A01 T02540213  RH  078%=      5-min Rain = 0
KDO1 251422Z 22005KT 25/21 A3001 RMK A01 T02530213  RH  079%=      5-min Rain = 0
KDO1 251423Z 21005KT 25/21 A3001 RMK A01 T02510211  RH  078%=      5-min Rain = 0
KDO1 251424Z 19003KT 25/21 A3001 RMK A01 T02490212  RH  080%=      5-min Rain = 0
KDO1 251425Z 16004KT 25/21 A3001 RMK A01 T02480213  RH  081%=      5-min Rain = 0
KDO1 251426Z 17004KT 25/21 A3001 RMK A01 T02490213  RH  080%=      5-min Rain = 0
KDO1 251427Z 18006KT 25/21 A3001 RMK A01 T02510214  RH  080%=      5-min Rain = 0
KDO1 251428Z 19005KT 25/21 A3001 RMK A01 T02520212  RH  078%=      5-min Rain = 0
KDO1 251429Z 18006KT 25/21 A3001 RMK A01 T02540213  RH  078%=      5-min Rain = 0
KDO1 251430Z 19005KT 26/21 A3001 RMK A01 T02550212  RH  077%=      5-min Rain = 0
KDO1 251431Z 20004KT 26/21 A3001 RMK A01 T02550212  RH  077%=      5-min Rain = 0
KDO1 251432Z 20003KT 26/21 A3001 RMK A01 T02550211  RH  076%=      5-min Rain = 0
KDO1 251433Z 18005KT 25/21 A3001 RMK A01 T02540213  RH  078%=      5-min Rain = 0
KDO1 251434Z 16005KT 26/21 A3001 RMK A01 T02550213  RH  077%=      5-min Rain = 0
KDO1 251435Z 15005KT 26/21 A3001 RMK A01 T02560213  RH  077%=      5-min Rain = 0
KDO1 251436Z 15003KT 26/21 A3001 RMK A01 T02570213  RH  077%=      5-min Rain = 0
KDO1 251437Z 14004KT 26/22 A3001 RMK A01 T02580215  RH  077%=      5-min Rain = 0
KDO1 251438Z 16005KT 26/22 A3001 RMK A01 T02590217  RH  078%=      5-min Rain = 0
KDO1 251439Z 16004KT 26/22 A3001 RMK A01 T02610215  RH  076%=      5-min Rain = 0
KDO1 251440Z 17006KT 26/22 A3001 RMK A01 T02630216  RH  075%=      5-min Rain = 0
KDO1 251441Z 15006KT 26/21 A3001 RMK A01 T02630214  RH  074%=      5-min Rain = 0
KDO1 251442Z 15005KT 26/22 A3001 RMK A01 T02630215  RH  075%=      5-min Rain = 0
KDO1 251443Z 16004KT 26/22 A3001 RMK A01 T02620215  RH  075%=      5-min Rain = 0
KDO1 251444Z 14004KT 26/22 A3001 RMK A01 T02620216  RH  076%=      5-min Rain = 0
KDO1 251445Z 12004KT 26/22 A3001 RMK A01 T02630216  RH  075%=      5-min Rain = 0
KDO1 251446Z 12006KT 26/21 A3001 RMK A01 T02630214  RH  075%=      5-min Rain = 0
KDO1 251447Z 15006KT 26/22 A3001 RMK A01 T02620216  RH  076%=      5-min Rain = 0
KDO1 251448Z 15006KT 26/22 A3001 RMK A01 T02630215  RH  075%=      5-min Rain = 0
KDO1 251449Z 14006KT 26/21 A3001 RMK A01 T02640214  RH  074%=      5-min Rain = 0
KDO1 251450Z 14004KT 26/21 A3002 RMK A01 T02640213  RH  073%=      5-min Rain = 0
KDO1 251451Z 14005KT 26/21 A3002 RMK A01 T02630213  RH  074%=      5-min Rain = 0
KDO1 251452Z 17007KT 26/21 A3002 RMK A01 T02630214  RH  074%=      5-min Rain = 0
KDO1 251453Z 17005KT 26/21 A3002 RMK A01 T02640212  RH  073%=      5-min Rain = 0
KDO1 251454Z 17005KT 26/21 A3002 RMK A01 T02640211  RH  073%=      5-min Rain = 0
KDO1 251455Z 16003KT 26/21 A3002 RMK A01 T02630211  RH  073%=      5-min Rain = 0
KDO1 251456Z 14003KT 26/21 A3002 RMK A01 T02620212  RH  074%=      5-min Rain = 0
KDO1 251457Z 13006KT 26/21 A3002 RMK A01 T02620211  RH  073%=      5-min Rain = 0
KDO1 251458Z 11006KT 26/21 A3002 RMK A01 T02620211  RH  074%=      5-min Rain = 0
KDO1 251459Z 10004KT 26/21 A3002 RMK A01 T02610213  RH  075%=      5-min Rain = 0
KDO1 251500Z 11003KT 26/21 A3002 RMK A01 T02600213  RH  075%=      5-min Rain = 0
KDO1 251501Z 10003KT 26/21 A3002 RMK A01 T02590212  RH  075%=      5-min Rain = 0
KDO1 251502Z 12006KT 26/21 A3002 RMK A01 T02590213  RH  076%=      5-min Rain = 0
KDO1 251503Z 13005KT 26/21 A3002 RMK A01 T02600212  RH  075%=      5-min Rain = 0
KDO1 251504Z 17004KT 26/21 A3002 RMK A01 T02610211  RH  074%=      5-min Rain = 0
KDO1 251505Z 18004KT 26/21 A3002 RMK A01 T02620209  RH  073%=      5-min Rain = 0
KDO1 251506Z 19005KT 26/21 A3002 RMK A01 T02630211  RH  073%=      5-min Rain = 0
KDO1 251507Z 18003KT 26/21 A3002 RMK A01 T02640209  RH  071%=      5-min Rain = 0
KDO1 251508Z 14003KT 27/21 A3002 RMK A01 T02650212  RH  072%=      5-min Rain = 0
KDO1 251509Z 16004KT 27/21 A3001 RMK A01 T02670211  RH  071%=      5-min Rain = 0
KDO1 251510Z 13003KT 27/21 A3001 RMK A01 T02680212  RH  071%=      5-min Rain = 0
KDO1 251511Z 13004KT 27/21 A3001 RMK A01 T02700212  RH  071%=      5-min Rain = 0
KDO1 251512Z 12004KT 27/21 A3001 RMK A01 T02710210  RH  069%=      5-min Rain = 0
KDO1 251513Z 15005KT 27/22 A3001 RMK A01 T02720215  RH  071%=      5-min Rain = 0
KDO1 251514Z 15003KT 27/21 A3001 RMK A01 T02730210  RH  068%=      5-min Rain = 0
KDO1 251515Z 16005KT 27/21 A3001 RMK A01 T02720211  RH  069%=      5-min Rain = 0
KDO1 251516Z 17006KT 27/21 A3001 RMK A01 T02710208  RH  068%=      5-min Rain = 0
KDO1 251517Z 14005KT 27/21 A3001 RMK A01 T02700209  RH  069%=      5-min Rain = 0
KDO1 251518Z 16004KT 27/21 A3001 RMK A01 T02700210  RH  070%=      5-min Rain = 0
KDO1 251519Z 19004KT 27/21 A3001 RMK A01 T02710207  RH  068%=      5-min Rain = 0
KDO1 251520Z 17005KT 27/21 A3001 RMK A01 T02700206  RH  068%=      5-min Rain = 0
KDO1 251521Z 16003KT 27/21 A3001 RMK A01 T02690205  RH  068%=      5-min Rain = 0
KDO1 251522Z 12002KT 27/21 A3001 RMK A01 T02690206  RH  069%=      5-min Rain = 0
KDO1 251523Z 19000KT 27/20 A3001 RMK A01 T02690203  RH  067%=      5-min Rain = 0
KDO1 251524Z 15002KT 27/20 A3001 RMK A01 T02690204  RH  067%=      5-min Rain = 0
KDO1 251525Z 14004KT 27/21 A3001 RMK A01 T02700207  RH  068%=      5-min Rain = 0
KDO1 251526Z 14007KT 27/21 A3001 RMK A01 T02730209  RH  068%=      5-min Rain = 0
KDO1 251527Z 14005KT 27/21 A3001 RMK A01 T02740210  RH  068%=      5-min Rain = 0
KDO1 251528Z 16005KT 28/21 A3001 RMK A01 T02760213  RH  069%=      5-min Rain = 0
KDO1 251529Z 16005KT 28/21 A3001 RMK A01 T02780207  RH  065%=      5-min Rain = 0
KDO1 251530Z 19003KT 28/21 A3001 RMK A01 T02770209  RH  067%=      5-min Rain = 0
KDO1 251531Z 23005KT 28/20 A30 RMK A01 T02770204  RH  065%=      5-min Rain = 0
KDO1 251532Z 24003KT 28/20 A30 RMK A01 T02760203  RH  064%=      5-min Rain = 0
KDO1 251533Z 20002KT 27/20 A30 RMK A01 T02740200  RH  064%=      5-min Rain = 0
KDO1 251534Z 22004KT 27/20 A30 RMK A01 T02720201  RH  065%=      5-min Rain = 0
KDO1 251535Z 21003KT 27/20 A30 RMK A01 T02710202  RH  066%=      5-min Rain = 0
KDO1 251536Z 19003KT 27/20 A30 RMK A01 T02710203  RH  066%=      5-min Rain = 0
KDO1 251537Z 17004KT 27/20 A30 RMK A01 T02710203  RH  066%=      5-min Rain = 0
KDO1 251538Z 15005KT 27/20 A30 RMK A01 T02710202  RH  066%=      5-min Rain = 0
KDO1 251539Z 17004KT 27/20 A30 RMK A01 T02710202  RH  066%=      5-min Rain = 0
KDO1 251540Z 16002KT 27/20 A30 RMK A01 T02700201  RH  066%=      5-min Rain = 0
KDO1 251541Z 21002KT 27/20 A30 RMK A01 T02700202  RH  066%=      5-min Rain = 0
KDO1 251542Z 25001KT 27/20 A30 RMK A01 T02720202  RH  066%=      5-min Rain = 0
KDO1 251543Z 28001KT 27/20 A30 RMK A01 T02710203  RH  066%=      5-min Rain = 0
KDO1 251544Z 27002KT 27/20 A30 RMK A01 T02720203  RH  066%=      5-min Rain = 0
KDO1 251545Z 25001KT 27/21 A30 RMK A01 T02730207  RH  067%=      5-min Rain = 0
KDO1 251546Z 23003KT 28/21 A30 RMK A01 T02750206  RH  066%=      5-min Rain = 0
KDO1 251547Z 23004KT 28/21 A30 RMK A01 T02770207  RH  066%=      5-min Rain = 0
KDO1 251548Z 22003KT 28/21 A30 RMK A01 T02790207  RH  065%=      5-min Rain = 0
KDO1 251549Z 23003KT 28/21 A30 RMK A01 T02800206  RH  064%=      5-min Rain = 0
KDO1 251550Z 26002KT 28/20 A30 RMK A01 T02790204  RH  064%=      5-min Rain = 0
KDO1 251551Z 26001KT 28/20 A30 RMK A01 T02760200  RH  063%=      5-min Rain = 0
KDO1 251552Z 16000KT 28/20 A30 RMK A01 T02750199  RH  063%=      5-min Rain = 0
KDO1 251553Z 19001KT 28/20 A30 RMK A01 T02750203  RH  065%=      5-min Rain = 0
KDO1 251554Z 18001KT 28/21 A30 RMK A01 T02760205  RH  065%=      5-min Rain = 0
KDO1 251555Z 26002KT 28/21 A30 RMK A01 T02790207  RH  065%=      5-min Rain = 0
KDO1 251556Z 26003KT 28/21 A30 RMK A01 T02810207  RH  064%=      5-min Rain = 0
KDO1 251557Z 26004KT 28/21 A30 RMK A01 T02810205  RH  064%=      5-min Rain = 0
KDO1 251558Z 27004KT 28/20 A30 RMK A01 T02790203  RH  063%=      5-min Rain = 0
KDO1 251559Z 28003KT 28/20 A30 RMK A01 T02750197  RH  062%=      5-min Rain = 0
KDO1 251600Z 28002KT 27/20 A30 RMK A01 T02730197  RH  063%=      5-min Rain = 0
KDO1 251601Z 28001KT 27/20 A30 RMK A01 T02730199  RH  064%=      5-min Rain = 0
KDO1 251602Z 17001KT 27/20 A30 RMK A01 T02730200  RH  064%=      5-min Rain = 0
KDO1 251603Z 18003KT 28/20 A30 RMK A01 T02760203  RH  064%=      5-min Rain = 0
KDO1 251604Z 16003KT 28/20 A30 RMK A01 T02790203  RH  063%=      5-min Rain = 0
KDO1 251605Z 14003KT 28/20 A3001 RMK A01 T02820204  RH  063%=      5-min Rain = 0
KDO1 251606Z 13005KT 29/20 A3001 RMK A01 T02850203  RH  061%=      5-min Rain = 0
KDO1 251607Z 12005KT 29/20 A3001 RMK A01 T02860202  RH  061%=      5-min Rain = 0
KDO1 251608Z 18004KT 29/20 A3001 RMK A01 T02860204  RH  061%=      5-min Rain = 0
KDO1 251609Z 18005KT 29/20 A3001 RMK A01 T02870202  RH  060%=      5-min Rain = 0
KDO1 251610Z 17004KT 29/21 A3001 RMK A01 T02870205  RH  061%=      5-min Rain = 0
KDO1 251611Z 16004KT 29/20 A3001 RMK A01 T02880202  RH  060%=      5-min Rain = 0
KDO1 251612Z 17003KT 29/20 A3001 RMK A01 T02870200  RH  059%=      5-min Rain = 0
KDO1 251613Z 15003KT 29/20 A3001 RMK A01 T02870203  RH  061%=      5-min Rain = 0
KDO1 251614Z 18003KT 29/21 A3001 RMK A01 T02890206  RH  061%=      5-min Rain = 0
KDO1 251615Z 13003KT 29/20 A3001 RMK A01 T02910201  RH  058%=      5-min Rain = 0
KDO1 251616Z 12002KT 29/20 A3001 RMK A01 T02900201  RH  059%=      5-min Rain = 0
KDO1 251617Z 14001KT 29/20 A3001 RMK A01 T02890198  RH  058%=      5-min Rain = 0
KDO1 251618Z 15005KT 29/20 A3001 RMK A01 T02880200  RH  059%=      5-min Rain = 0
KDO1 251619Z 15005KT 29/20 A3001 RMK A01 T02880198  RH  058%=      5-min Rain = 0
KDO1 251620Z 15003KT 29/20 A3001 RMK A01 T02870199  RH  059%=      5-min Rain = 0
KDO1 251621Z 18001KT 29/20 A3001 RMK A01 T02870196  RH  058%=      5-min Rain = 0
KDO1 251622Z 10001KT 29/20 A3001 RMK A01 T02870198  RH  059%=      5-min Rain = 0
KDO1 251623Z 11003KT 29/20 A3001 RMK A01 T02870196  RH  058%=      5-min Rain = 0
KDO1 251624Z 11004KT 29/20 A3001 RMK A01 T02870197  RH  058%=      5-min Rain = 0
KDO1 251625Z 11003KT 29/20 A3001 RMK A01 T02870199  RH  059%=      5-min Rain = 0
KDO1 251626Z 10003KT 29/20 A3001 RMK A01 T02870203  RH  060%=      5-min Rain = 0
KDO1 251627Z 14006KT 29/21 A3001 RMK A01 T02900207  RH  061%=      5-min Rain = 0
KDO1 251628Z 12005KT 29/21 A3001 RMK A01 T02930206  RH  059%=      5-min Rain = 0
KDO1 251629Z 11004KT 30/20 A3001 RMK A01 T02950204  RH  058%=      5-min Rain = 0
KDO1 251630Z 10004KT 30/20 A3001 RMK A01 T02950202  RH  058%=      5-min Rain = 0
KDO1 251631Z 08003KT 29/20 A3001 RMK A01 T02930201  RH  058%=      5-min Rain = 0
KDO1 251632Z 07003KT 29/20 A3001 RMK A01 T02930203  RH  058%=      5-min Rain = 0
KDO1 251633Z 09003KT 29/20 A3001 RMK A01 T02930202  RH  058%=      5-min Rain = 0
KDO1 251634Z 11003KT 29/20 A3001 RMK A01 T02940204  RH  058%=      5-min Rain = 0
KDO1 251635Z 12002KT 30/20 A3001 RMK A01 T02950203  RH  058%=      5-min Rain = 0
KDO1 251636Z 13002KT 30/20 A3001 RMK A01 T02960201  RH  057%=      5-min Rain = 0
KDO1 251637Z 16002KT 30/20 A3001 RMK A01 T02960202  RH  057%=      5-min Rain = 0
KDO1 251638Z 04002KT 30/20 A3001 RMK A01 T02970201  RH  056%=      5-min Rain = 0
KDO1 251639Z 03002KT 30/20 A3001 RMK A01 T02960199  RH  056%=      5-min Rain = 0
KDO1 251640Z 04002KT 29/20 A3001 RMK A01 T02940200  RH  057%=      5-min Rain = 0
KDO1 251641Z 06002KT 29/20 A3001 RMK A01 T02920201  RH  058%=      5-min Rain = 0
KDO1 251642Z 10005KT 29/21 A3001 RMK A01 T02930205  RH  059%=      5-min Rain = 0
KDO1 251643Z 10005KT 30/21 A3001 RMK A01 T02950205  RH  058%=      5-min Rain = 0
KDO1 251644Z 13005KT 30/21 A3001 RMK A01 T02970205  RH  058%=      5-min Rain = 0
KDO1 251645Z 14006KT 30/20 A3001 RMK A01 T02990204  RH  057%=      5-min Rain = 0
KDO1 251646Z 11005KT 30/20 A3001 RMK A01 T03010203  RH  056%=      5-min Rain = 0
KDO1 251647Z 13005KT 30/20 A3001 RMK A01 T03010203  RH  056%=      5-min Rain = 0
KDO1 251648Z 11004KT 30/20 A3001 RMK A01 T02990202  RH  056%=      5-min Rain = 0
KDO1 251649Z 09003KT 30/20 A3001 RMK A01 T02970198  RH  055%=      5-min Rain = 0
KDO1 251650Z 07002KT 30/20 A3001 RMK A01 T02970199  RH  056%=      5-min Rain = 0
KDO1 251651Z 08001KT 30/20 A3001 RMK A01 T02970198  RH  055%=      5-min Rain = 0
KDO1 251652Z 35001KT 30/20 A3001 RMK A01 T02960195  RH  055%=      5-min Rain = 0
KDO1 251653Z 34003KT 29/20 A3001 RMK A01 T02940196  RH  055%=      5-min Rain = 0
KDO1 251654Z 35002KT 29/20 A3001 RMK A01 T02930199  RH  057%=      5-min Rain = 0
KDO1 251655Z 08002KT 29/20 A3001 RMK A01 T02940199  RH  057%=      5-min Rain = 0
KDO1 251656Z 09002KT 30/19 A3001 RMK A01 T02950194  RH  055%=      5-min Rain = 0
KDO1 251657Z 09001KT 30/20 A3001 RMK A01 T02950195  RH  055%=      5-min Rain = 0
KDO1 251658Z 08003KT 30/20 A3001 RMK A01 T02950197  RH  055%=      5-min Rain = 0
KDO1 251659Z 11003KT 30/20 A3001 RMK A01 T02960199  RH  056%=      5-min Rain = 0
KDO1 251700Z 11003KT 30/20 A3001 RMK A01 T02970198  RH  055%=      5-min Rain = 0
KDO1 251701Z 10004KT 30/20 A3001 RMK A01 T02980196  RH  054%=      5-min Rain = 0
KDO1 251702Z 12002KT 30/20 A3001 RMK A01 T02980196  RH  054%=      5-min Rain = 0
KDO1 251703Z 10001KT 30/20 A3001 RMK A01 T02980196  RH  055%=      5-min Rain = 0
KDO1 251704Z 09002KT 30/19 A3001 RMK A01 T02990194  RH  053%=      5-min Rain = 0
KDO1 251705Z 13003KT 30/20 A3001 RMK A01 T03010197  RH  054%=      5-min Rain = 0
KDO1 251706Z 14002KT 30/20 A3001 RMK A01 T03010198  RH  054%=      5-min Rain = 0
KDO1 251707Z 12004KT 30/20 A3001 RMK A01 T03030200  RH  054%=      5-min Rain = 0
KDO1 251708Z 12004KT 30/20 A3001 RMK A01 T03040198  RH  053%=      5-min Rain = 0
KDO1 251709Z 11003KT 30/20 A3001 RMK A01 T03040200  RH  054%=      5-min Rain = 0
KDO1 251710Z 11003KT 30/20 A3001 RMK A01 T03040197  RH  053%=      5-min Rain = 0
KDO1 251711Z 16004KT 31/20 A3001 RMK A01 T03050197  RH  052%=      5-min Rain = 0
KDO1 251712Z 15003KT 30/20 A3001 RMK A01 T03040196  RH  053%=      5-min Rain = 0
KDO1 251713Z 14004KT 30/20 A3001 RMK A01 T03040196  RH  053%=      5-min Rain = 0
KDO1 251714Z 13002KT 30/19 A3001 RMK A01 T03040191  RH  051%=      5-min Rain = 0
KDO1 251715Z 11002KT 30/20 A3001 RMK A01 T03040197  RH  053%=      5-min Rain = 0
KDO1 251716Z 08002KT 31/19 A3001 RMK A01 T03060192  RH  051%=      5-min Rain = 0
KDO1 251717Z 07001KT 31/19 A3001 RMK A01 T03050189  RH  050%=      5-min Rain = 0
KDO1 251718Z 06001KT 30/19 A30 RMK A01 T03020188  RH  051%=      5-min Rain = 0
KDO1 251719Z 14003G9KT 30/19 A30 RMK A01 T03010193  RH  053%=      5-min Rain = 0
KDO1 251720Z 08005KT 30/20 A30 RMK A01 T03020195  RH  053%=      5-min Rain = 0
KDO1 251721Z 10005KT 30/20 A30 RMK A01 T03020198  RH  054%=      5-min Rain = 0
KDO1 251722Z 12004KT 30/20 A30 RMK A01 T03020199  RH  054%=      5-min Rain = 0
KDO1 251723Z 10004KT 30/20 A30 RMK A01 T03040197  RH  053%=      5-min Rain = 0
KDO1 251724Z 09004KT 31/20 A30 RMK A01 T03050196  RH  052%=      5-min Rain = 0
KDO1 251725Z 09006KT 30/20 A30 RMK A01 T03040200  RH  054%=      5-min Rain = 0
KDO1 251726Z 09004KT 30/20 A30 RMK A01 T03040198  RH  053%=      5-min Rain = 0
KDO1 251727Z 10005KT 30/20 A30 RMK A01 T03040200  RH  054%=      5-min Rain = 0
KDO1 251728Z 10005KT 30/20 A30 RMK A01 T03040203  RH  055%=      5-min Rain = 0
KDO1 251729Z 09003KT 31/20 A30 RMK A01 T03050201  RH  054%=      5-min Rain = 0
KDO1 251730Z 08004KT 31/20 A30 RMK A01 T03050200  RH  053%=      5-min Rain = 0
KDO1 251731Z 11001KT 31/20 A30 RMK A01 T03050197  RH  052%=      5-min Rain = 0
KDO1 251732Z 11002KT 31/20 A30 RMK A01 T03050197  RH  053%=      5-min Rain = 0
KDO1 251733Z 11005KT 30/20 A30 RMK A01 T03040199  RH  053%=      5-min Rain = 0
KDO1 251734Z 12003KT 31/20 A30 RMK A01 T03050202  RH  054%=      5-min Rain = 0
KDO1 251735Z 11003KT 31/20 A30 RMK A01 T03070203  RH  054%=      5-min Rain = 0
KDO1 251736Z 08005KT 31/21 A30 RMK A01 T03100206  RH  054%=      5-min Rain = 0
KDO1 251737Z 12007KT 31/20 A30 RMK A01 T03120203  RH  052%=      5-min Rain = 0
KDO1 251738Z 14005KT 31/20 A30 RMK A01 T03130198  RH  051%=      5-min Rain = 0
KDO1 251739Z 11005KT 31/20 A30 RMK A01 T03110204  RH  053%=      5-min Rain = 0
KDO1 251740Z 10005KT 31/20 A30 RMK A01 T03120202  RH  052%=      5-min Rain = 0
KDO1 251741Z 10007KT 31/20 A30 RMK A01 T03130201  RH  051%=      5-min Rain = 0
KDO1 251742Z 08006KT 31/20 A30 RMK A01 T03120200  RH  051%=      5-min Rain = 0
KDO1 251743Z 07005KT 31/20 A30 RMK A01 T03110200  RH  052%=      5-min Rain = 0
KDO1 251744Z 13005KT 31/20 A30 RMK A01 T03110202  RH  052%=      5-min Rain = 0
KDO1 251745Z 12005KT 31/20 A30 RMK A01 T03120200  RH  052%=      5-min Rain = 0
KDO1 251746Z 13009KT 31/20 A30 RMK A01 T03130201  RH  051%=      5-min Rain = 0
KDO1 251747Z 14006KT 31/20 A30 RMK A01 T03140198  RH  050%=      5-min Rain = 0
KDO1 251748Z 16003KT 32/20 A30 RMK A01 T03150198  RH  050%=      5-min Rain = 0
KDO1 251749Z 13007KT 31/20 A30 RMK A01 T03140197  RH  050%=      5-min Rain = 0
KDO1 251750Z 13006KT 31/20 A30 RMK A01 T03130199  RH  051%=      5-min Rain = 0
KDO1 251751Z 11006KT 31/20 A30 RMK A01 T03120200  RH  051%=      5-min Rain = 0
KDO1 251752Z 11007KT 31/20 A30 RMK A01 T03120198  RH  051%=      5-min Rain = 0
KDO1 251753Z 11003KT 31/20 A30 RMK A01 T03110198  RH  051%=      5-min Rain = 0
KDO1 251754Z 11007KT 31/20 A30 RMK A01 T03100201  RH  052%=      5-min Rain = 0
KDO1 251755Z 12007KT 31/20 A30 RMK A01 T03120201  RH  052%=      5-min Rain = 0
KDO1 251756Z 12006KT 31/20 A30 RMK A01 T03110198  RH  051%=      5-min Rain = 0
KDO1 251757Z 11007KT 31/20 A30 RMK A01 T03110203  RH  052%=      5-min Rain = 0
KDO1 251758Z 10006KT 31/20 A30 RMK A01 T03130201  RH  051%=      5-min Rain = 0
KDO1 251759Z 11006KT 32/20 A30 RMK A01 T03150200  RH  051%=      5-min Rain = 0
KDO1 251800Z 10007KT 32/20 A30 RMK A01 T03150198  RH  050%=      5-min Rain = 0
KDO1 251801Z 09005KT 31/20 A30 RMK A01 T03140199  RH  050%=      5-min Rain = 0
KDO1 251802Z 12005KT 32/20 A30 RMK A01 T03150201  RH  051%=      5-min Rain = 0
KDO1 251803Z 12005KT 32/20 A30 RMK A01 T03170200  RH  050%=      5-min Rain = 0
KDO1 251804Z 15007KT 32/20 A30 RMK A01 T03190200  RH  050%=      5-min Rain = 0
KDO1 251805Z 13005KT 32/19 A30 RMK A01 T03180194  RH  048%=      5-min Rain = 0
KDO1 251806Z 13007KT 32/20 A30 RMK A01 T03160199  RH  050%=      5-min Rain = 0
KDO1 251807Z 11007KT 32/20 A30 RMK A01 T03170196  RH  049%=      5-min Rain = 0
KDO1 251808Z 09004KT 31/19 A30 RMK A01 T03130192  RH  049%=      5-min Rain = 0
KDO1 251809Z 11003KT 31/19 A30 RMK A01 T03090193  RH  050%=      5-min Rain = 0
KDO1 251810Z 11006KT 31/20 A30 RMK A01 T03080199  RH  052%=      5-min Rain = 0
KDO1 251811Z 09006KT 31/20 A30 RMK A01 T03090196  RH  051%=      5-min Rain = 0
KDO1 251812Z 10005KT 31/20 A30 RMK A01 T03100197  RH  051%=      5-min Rain = 0
KDO1 251813Z 11006KT 31/20 A30 RMK A01 T03120198  RH  051%=      5-min Rain = 0
KDO1 251814Z 10008KT 31/20 A30 RMK A01 T03130200  RH  051%=      5-min Rain = 0
KDO1 251815Z 10005KT 31/20 A30 RMK A01 T03140200  RH  051%=      5-min Rain = 0
KDO1 251816Z 09004KT 31/20 A30 RMK A01 T03140198  RH  050%=      5-min Rain = 0
KDO1 251817Z 17005KT 31/20 A30 RMK A01 T03140201  RH  051%=      5-min Rain = 0
KDO1 251818Z 13005KT 32/20 A30 RMK A01 T03160203  RH  051%=      5-min Rain = 0
KDO1 251819Z 11002KT 32/20 A30 RMK A01 T03190202  RH  050%=      5-min Rain = 0
KDO1 251820Z 11006KT 32/20 A30 RMK A01 T03200202  RH  050%=      5-min Rain = 0
KDO1 251821Z 16004KT 32/20 A30 RMK A01 T03210198  RH  048%=      5-min Rain = 0
KDO1 251822Z 13003KT 32/20 A30 RMK A01 T03210199  RH  049%=      5-min Rain = 0
KDO1 251823Z 12006KT 32/20 A30 RMK A01 T03220202  RH  049%=      5-min Rain = 0
KDO1 251824Z 12006KT 32/20 A30 RMK A01 T03230200  RH  048%=      5-min Rain = 0
KDO1 251825Z 12003KT 32/20 A2999 RMK A01 T03230197  RH  047%=      5-min Rain = 0
KDO1 251826Z 11007KT 32/20 A2999 RMK A01 T03210201  RH  049%=      5-min Rain = 0
KDO1 251827Z 10006KT 32/20 A2999 RMK A01 T03200200  RH  049%=      5-min Rain = 0
KDO1 251828Z 13005KT 32/20 A2999 RMK A01 T03190201  RH  050%=      5-min Rain = 0
KDO1 251829Z 14006KT 32/20 A2999 RMK A01 T03190200  RH  049%=      5-min Rain = 0
KDO1 251830Z 16005KT 32/20 A2999 RMK A01 T03210198  RH  048%=      5-min Rain = 0
KDO1 251831Z 19003KT 32/19 A2999 RMK A01 T03210193  RH  047%=      5-min Rain = 0
KDO1 251832Z 18003KT 32/20 A2999 RMK A01 T03180195  RH  048%=      5-min Rain = 0
KDO1 251833Z 12006KT 32/20 A2999 RMK A01 T03190199  RH  049%=      5-min Rain = 0
KDO1 251834Z 11006KT 32/20 A2999 RMK A01 T03210195  RH  047%=      5-min Rain = 0
KDO1 251835Z 10006KT 32/19 A2999 RMK A01 T03200194  RH  047%=      5-min Rain = 0
KDO1 251836Z 10007KT 32/20 A2999 RMK A01 T03180199  RH  049%=      5-min Rain = 0
KDO1 251837Z 13007KT 32/20 A2999 RMK A01 T03200200  RH  049%=      5-min Rain = 0
KDO1 251838Z 14007KT 32/20 A2999 RMK A01 T03210196  RH  048%=      5-min Rain = 0
KDO1 251839Z 13009KT 32/20 A2999 RMK A01 T03200196  RH  048%=      5-min Rain = 0
KDO1 251840Z 13007KT 32/20 A2999 RMK A01 T03210198  RH  048%=      5-min Rain = 0
KDO1 251841Z 15005KT 32/19 A2999 RMK A01 T03220194  RH  047%=      5-min Rain = 0
KDO1 251842Z 12004KT 32/19 A2999 RMK A01 T03210194  RH  047%=      5-min Rain = 0
KDO1 251843Z 10004KT 32/19 A2999 RMK A01 T03210194  RH  047%=      5-min Rain = 0
KDO1 251844Z 08002KT 32/19 A2999 RMK A01 T03200188  RH  046%=      5-min Rain = 0
KDO1 251845Z 12003KT 32/19 A2999 RMK A01 T03170191  RH  047%=      5-min Rain = 0
KDO1 251846Z 13002KT 32/19 A2999 RMK A01 T03170191  RH  047%=      5-min Rain = 0
KDO1 251847Z 13005KT 32/19 A2999 RMK A01 T03180192  RH  047%=      5-min Rain = 0
KDO1 251848Z 13004KT 32/19 A2999 RMK A01 T03190189  RH  046%=      5-min Rain = 0
KDO1 251849Z 12008KT 32/19 A2999 RMK A01 T03200194  RH  047%=      5-min Rain = 0
KDO1 251850Z 11008KT 32/20 A2999 RMK A01 T03210199  RH  049%=      5-min Rain = 0
KDO1 251851Z 10007KT 32/20 A2999 RMK A01 T03220199  RH  048%=      5-min Rain = 0
KDO1 251852Z 11005KT 32/20 A2999 RMK A01 T03220197  RH  048%=      5-min Rain = 0
KDO1 251853Z 11006KT 32/20 A2999 RMK A01 T03230198  RH  048%=      5-min Rain = 0
KDO1 251854Z 10008KT 33/20 A2999 RMK A01 T03250197  RH  047%=      5-min Rain = 0
KDO1 251855Z 11006KT 32/20 A2999 RMK A01 T03240196  RH  047%=      5-min Rain = 0
KDO1 251856Z 09006KT 32/20 A2999 RMK A01 T03230196  RH  047%=      5-min Rain = 0
KDO1 251857Z 09008KT 32/20 A2999 RMK A01 T03240196  RH  047%=      5-min Rain = 0
KDO1 251858Z 08007KT 33/20 A2999 RMK A01 T03250198  RH  047%=      5-min Rain = 0
KDO1 251859Z 07007KT 33/20 A2999 RMK A01 T03250198  RH  047%=      5-min Rain = 0
KDO1 251900Z 09008KT 33/20 A2999 RMK A01 T03250200  RH  048%=      5-min Rain = 0
KDO1 251901Z 13005KT 33/20 A2999 RMK A01 T03260201  RH  048%=      5-min Rain = 0
KDO1 251902Z 12007KT 33/20 A2999 RMK A01 T03280202  RH  047%=      5-min Rain = 0
KDO1 251903Z 10009KT 33/20 A2999 RMK A01 T03300200  RH  046%=      5-min Rain = 0
KDO1 251904Z 10009KT 33/20 A2999 RMK A01 T03290197  RH  046%=      5-min Rain = 0
KDO1 251905Z 09009KT 33/20 A2999 RMK A01 T03260196  RH  046%=      5-min Rain = 0
KDO1 251906Z 09005KT 32/20 A2999 RMK A01 T03240196  RH  047%=      5-min Rain = 0
KDO1 251907Z 10006KT 33/20 A2999 RMK A01 T03250195  RH  046%=      5-min Rain = 0
KDO1 251908Z 11008KT 33/20 A2999 RMK A01 T03250196  RH  047%=      5-min Rain = 0
KDO1 251909Z 11010KT 33/19 A2999 RMK A01 T03250193  RH  046%=      5-min Rain = 0
KDO1 251910Z 10009KT 33/19 A2999 RMK A01 T03250190  RH  045%=      5-min Rain = 0
KDO1 251911Z 11006KT 32/19 A2999 RMK A01 T03240187  RH  044%=      5-min Rain = 0
KDO1 251912Z 13007KT 32/19 A2998 RMK A01 T03230189  RH  045%=      5-min Rain = 0
KDO1 251913Z 16006KT 32/19 A2998 RMK A01 T03240187  RH  044%=      5-min Rain = 0
KDO1 251914Z 17005KT 33/19 A2998 RMK A01 T03260190  RH  045%=      5-min Rain = 0
KDO1 251915Z 15006KT 33/19 A2998 RMK A01 T03300190  RH  044%=      5-min Rain = 0
KDO1 251916Z 12004KT 33/19 A2998 RMK A01 T03310187  RH  043%=      5-min Rain = 0
KDO1 251917Z 12005KT 33/20 A2998 RMK A01 T03310196  RH  045%=      5-min Rain = 0
KDO1 251918Z 15005KT 33/20 A2998 RMK A01 T03330195  RH  044%=      5-min Rain = 0
KDO1 251919Z 17004KT 33/19 A2998 RMK A01 T03340191  RH  043%=      5-min Rain = 0
KDO1 251920Z 15005KT 34/19 A2998 RMK A01 T03350194  RH  044%=      5-min Rain = 0
KDO1 251921Z 10008KT 34/20 A2998 RMK A01 T03360196  RH  044%=      5-min Rain = 0
KDO1 251922Z 12009KT 34/20 A2998 RMK A01 T03350197  RH  044%=      5-min Rain = 0
KDO1 251923Z 12011KT 33/20 A2998 RMK A01 T03330197  RH  045%=      5-min Rain = 0
KDO1 251924Z 14007KT 33/19 A2998 RMK A01 T03330191  RH  043%=      5-min Rain = 0
KDO1 251925Z 12005KT 33/19 A2998 RMK A01 T03320192  RH  044%=      5-min Rain = 0
KDO1 251926Z 10005KT 33/19 A2998 RMK A01 T03310190  RH  043%=      5-min Rain = 0
KDO1 251927Z 10004KT 33/19 A2998 RMK A01 T03300189  RH  043%=      5-min Rain = 0
KDO1 251928Z 11007KT 33/19 A2998 RMK A01 T03300190  RH  044%=      5-min Rain = 0
KDO1 251929Z 14007KT 33/19 A2998 RMK A01 T03310194  RH  044%=      5-min Rain = 0
KDO1 251930Z 15007KT 33/19 A2998 RMK A01 T03330193  RH  044%=      5-min Rain = 0
KDO1 251931Z 16009KT 33/19 A2998 RMK A01 T03340191  RH  043%=      5-min Rain = 0
KDO1 251932Z 16008KT 34/19 A2998 RMK A01 T03350186  RH  041%=      5-min Rain = 0
KDO1 251933Z 15006KT 34/19 A2998 RMK A01 T03350190  RH  043%=      5-min Rain = 0
KDO1 251934Z 12007KT 34/20 A2998 RMK A01 T03370195  RH  043%=      5-min Rain = 0
KDO1 251935Z 12009KT 34/20 A2998 RMK A01 T03400198  RH  043%=      5-min Rain = 0
KDO1 251936Z 13008KT 34/20 A2998 RMK A01 T03400198  RH  043%=      5-min Rain = 0
KDO1 251937Z 13013KT 34/19 A2998 RMK A01 T03400194  RH  042%=      5-min Rain = 0
KDO1 251938Z 13010KT 34/19 A2998 RMK A01 T03360191  RH  042%=      5-min Rain = 0
KDO1 251939Z 11008KT 34/19 A2998 RMK A01 T03350190  RH  042%=      5-min Rain = 0
KDO1 251940Z 09006KT 33/19 A2998 RMK A01 T03330189  RH  043%=      5-min Rain = 0
KDO1 251941Z 10005KT 33/19 A2998 RMK A01 T03320190  RH  043%=      5-min Rain = 0
KDO1 251942Z 11008KT 33/20 A2998 RMK A01 T03340195  RH  044%=      5-min Rain = 0
KDO1 251943Z 12009KT 34/20 A2998 RMK A01 T03360196  RH  044%=      5-min Rain = 0
KDO1 251944Z 10008KT 34/20 A2998 RMK A01 T03390198  RH  044%=      5-min Rain = 0
KDO1 251945Z 12012KT 34/19 A2998 RMK A01 T03410193  RH  042%=      5-min Rain = 0
KDO1 251946Z 11011KT 34/19 A2998 RMK A01 T03390189  RH  041%=      5-min Rain = 0
KDO1 251947Z 12010KT 34/19 A2998 RMK A01 T03360193  RH  043%=      5-min Rain = 0
KDO1 251948Z 12010KT 34/19 A2998 RMK A01 T03360191  RH  042%=      5-min Rain = 0
KDO1 251949Z 12007KT 34/19 A2998 RMK A01 T03360189  RH  042%=      5-min Rain = 0
KDO1 251950Z 11008KT 34/20 A2998 RMK A01 T03360197  RH  044%=      5-min Rain = 0
KDO1 251951Z 11010KT 34/19 A2998 RMK A01 T03390193  RH  042%=      5-min Rain = 0
KDO1 251952Z 12008KT 34/19 A2998 RMK A01 T03390193  RH  042%=      5-min Rain = 0
KDO1 251953Z 13011KT 34/19 A2998 RMK A01 T03390192  RH  042%=      5-min Rain = 0
KDO1 251954Z 13013KT 34/19 A2998 RMK A01 T03370189  RH  042%=      5-min Rain = 0
KDO1 251955Z 13009KT 34/19 A2998 RMK A01 T03360188  RH  042%=      5-min Rain = 0
KDO1 251956Z 13009KT 34/19 A2998 RMK A01 T03350189  RH  042%=      5-min Rain = 0
KDO1 251957Z 13009KT 34/19 A2997 RMK A01 T03350185  RH  041%=      5-min Rain = 0
KDO1 251958Z 12007KT 34/19 A2997 RMK A01 T03350191  RH  043%=      5-min Rain = 0
KDO1 251959Z 14009KT 34/19 A2997 RMK A01 T03380191  RH  042%=      5-min Rain = 0
KDO1 252000Z 10010KT 34/19 A2997 RMK A01 T03380190  RH  042%=      5-min Rain = 0
KDO1 252001Z 11012KT 34/19 A2997 RMK A01 T03370191  RH  042%=      5-min Rain = 0
KDO1 252002Z 11010KT 34/19 A2997 RMK A01 T03360193  RH  043%=      5-min Rain = 0
KDO1 252003Z 10014KT 34/19 A2997 RMK A01 T03350190  RH  042%=      5-min Rain = 0
KDO1 252004Z 11011KT 33/19 A2997 RMK A01 T03340187  RH  042%=      5-min Rain = 0
KDO1 252005Z 12011KT 33/19 A2997 RMK A01 T03330186  RH  042%=      5-min Rain = 0
KDO1 252006Z 12009KT 33/19 A2997 RMK A01 T03330186  RH  042%=      5-min Rain = 0
KDO1 252007Z 13005KT 33/18 A2997 RMK A01 T03330184  RH  041%=      5-min Rain = 0
KDO1 252008Z 12006KT 33/19 A2997 RMK A01 T03340189  RH  042%=      5-min Rain = 0
KDO1 252009Z 11012KT 34/19 A2997 RMK A01 T03370190  RH  042%=      5-min Rain = 0
KDO1 252010Z 11011KT 34/19 A2997 RMK A01 T03380187  RH  041%=      5-min Rain = 0
KDO1 252011Z 11009KT 34/19 A2997 RMK A01 T03380187  RH  041%=      5-min Rain = 0
KDO1 252012Z 11010KT 34/19 A2997 RMK A01 T03370191  RH  042%=      5-min Rain = 0
KDO1 252013Z 12010KT 34/19 A2997 RMK A01 T03380187  RH  041%=      5-min Rain = 0
KDO1 252014Z 14012G17KT 34/19 A2997 RMK A01 T03390191  RH  042%=      5-min Rain = 0
KDO1 252015Z 11013KT 34/19 A2997 RMK A01 T03390188  RH  041%=      5-min Rain = 0
KDO1 252016Z 10011KT 34/19 A2997 RMK A01 T03380185  RH  040%=      5-min Rain = 0
KDO1 252017Z 12011KT 34/19 A2997 RMK A01 T03370186  RH  041%=      5-min Rain = 0
KDO1 252018Z 12011KT 34/19 A2997 RMK A01 T03380187  RH  041%=      5-min Rain = 0
KDO1 252019Z 13007KT 34/19 A2996 RMK A01 T03380190  RH  042%=      5-min Rain = 0
KDO1 252020Z 13007KT 34/19 A2996 RMK A01 T03390191  RH  042%=      5-min Rain = 0
KDO1 252021Z 14009KT 34/19 A2996 RMK A01 T03410192  RH  041%=      5-min Rain = 0
KDO1 252022Z 13010KT 34/19 A2996 RMK A01 T03430192  RH  041%=      5-min Rain = 0
KDO1 252023Z 12012KT 34/20 A2996 RMK A01 T03430195  RH  042%=      5-min Rain = 0
KDO1 252024Z 11014KT 34/20 A2996 RMK A01 T03420197  RH  043%=      5-min Rain = 0
KDO1 252025Z 12014KT 34/20 A2996 RMK A01 T03390200  RH  044%=      5-min Rain = 0
KDO1 252026Z 12010KT 34/20 A2996 RMK A01 T03380199  RH  044%=      5-min Rain = 0
KDO1 252027Z 14012KT 34/20 A2996 RMK A01 T03380198  RH  044%=      5-min Rain = 0
KDO1 252028Z 14010KT 34/20 A2996 RMK A01 T03380195  RH  043%=      5-min Rain = 0
KDO1 252029Z 13009KT 34/20 A2996 RMK A01 T03370196  RH  043%=      5-min Rain = 0
KDO1 252030Z 12013KT 34/20 A2996 RMK A01 T03370201  RH  045%=      5-min Rain = 0
KDO1 252031Z 09011KT 34/20 A2996 RMK A01 T03380203  RH  045%=      5-min Rain = 0
KDO1 252032Z 10012KT 34/20 A2995 RMK A01 T03390200  RH  044%=      5-min Rain = 0
KDO1 252033Z 09013KT 34/20 A2995 RMK A01 T03380200  RH  045%=      5-min Rain = 0
KDO1 252034Z 11014KT 34/20 A2995 RMK A01 T03370201  RH  045%=      5-min Rain = 0
KDO1 252035Z 11014G19KT 34/20 A2995 RMK A01 T03360199  RH  044%=      5-min Rain = 0
KDO1 252036Z 11013KT 34/20 A2995 RMK A01 T03350199  RH  045%=      5-min Rain = 0
KDO1 252037Z 13012KT 33/20 A2995 RMK A01 T03340202  RH  046%=      5-min Rain = 0
KDO1 252038Z 11015KT 33/20 A2995 RMK A01 T03340200  RH  045%=      5-min Rain = 0
KDO1 252039Z 11016KT 33/20 A2995 RMK A01 T03340200  RH  045%=      5-min Rain = 0
KDO1 252040Z 10012KT 33/20 A2995 RMK A01 T03320199  RH  046%=      5-min Rain = 0
KDO1 252041Z 10013G18KT 33/20 A2995 RMK A01 T03320201  RH  046%=      5-min Rain = 0
KDO1 252042Z 11014KT 33/20 A2995 RMK A01 T03330200  RH  046%=      5-min Rain = 0
KDO1 252043Z 11012KT 33/20 A2995 RMK A01 T03320199  RH  046%=      5-min Rain = 0
KDO1 252044Z 11010KT 33/21 A2995 RMK A01 T03330206  RH  047%=      5-min Rain = 0
KDO1 252045Z 12013KT 34/20 A2995 RMK A01 T03360203  RH  046%=      5-min Rain = 0
KDO1 252046Z 10011KT 34/20 A2995 RMK A01 T03360203  RH  046%=      5-min Rain = 0
KDO1 252047Z 11011KT 34/20 A2995 RMK A01 T03350204  RH  046%=      5-min Rain = 0
KDO1 252048Z 12013KT 34/21 A2995 RMK A01 T03350207  RH  047%=      5-min Rain = 0
KDO1 252049Z 11012KT 34/20 A2995 RMK A01 T03350203  RH  046%=      5-min Rain = 0
KDO1 252050Z 11012KT 34/20 A2995 RMK A01 T03350201  RH  046%=      5-min Rain = 0
KDO1 252051Z 10012KT 33/20 A2995 RMK A01 T03330202  RH  046%=      5-min Rain = 0
KDO1 252052Z 10011KT 33/20 A2995 RMK A01 T03330201  RH  046%=      5-min Rain = 0
KDO1 252053Z 11010KT 33/20 A2995 RMK A01 T03330203  RH  047%=      5-min Rain = 0
KDO1 252054Z 09014KT 34/21 A2995 RMK A01 T03350205  RH  047%=      5-min Rain = 0
KDO1 252055Z 09014KT 34/20 A2995 RMK A01 T03360203  RH  046%=      5-min Rain = 0
KDO1 252056Z 11015KT 34/20 A2995 RMK A01 T03350203  RH  046%=      5-min Rain = 0
KDO1 252057Z 11015KT 33/20 A2995 RMK A01 T03320198  RH  045%=      5-min Rain = 0
KDO1 252058Z 11011KT 33/20 A2995 RMK A01 T03280195  RH  045%=      5-min Rain = 0
KDO1 252059Z 10012KT 33/20 A2995 RMK A01 T03270198  RH  047%=      5-min Rain = 0
KDO1 252100Z 10013KT 33/20 A2995 RMK A01 T03260202  RH  048%=      5-min Rain = 0
KDO1 252101Z 11015KT 33/20 A2995 RMK A01 T03250200  RH  048%=      5-min Rain = 0
KDO1 252102Z 10011KT 32/20 A2995 RMK A01 T03240199  RH  048%=      5-min Rain = 0
KDO1 252103Z 10012KT 32/20 A2995 RMK A01 T03220196  RH  047%=      5-min Rain = 0
KDO1 252104Z 09013KT 32/19 A2995 RMK A01 T03200193  RH  047%=      5-min Rain = 0
KDO1 252105Z 09011KT 32/19 A2995 RMK A01 T03180193  RH  047%=      5-min Rain = 0
KDO1 252106Z 08011KT 32/19 A2995 RMK A01 T03170194  RH  048%=      5-min Rain = 0
KDO1 252107Z 09011G16KT 32/20 A2995 RMK A01 T03160196  RH  049%=      5-min Rain = 0
KDO1 252108Z 10014G19KT 32/20 A2994 RMK A01 T03160197  RH  049%=      5-min Rain = 0
KDO1 252109Z 10014KT 32/20 A2994 RMK A01 T03160196  RH  049%=      5-min Rain = 0
KDO1 252110Z 09014KT 32/20 A2994 RMK A01 T03150196  RH  049%=      5-min Rain = 0
KDO1 252111Z 10013G18KT 31/20 A2994 RMK A01 T03140195  RH  049%=      5-min Rain = 0
KDO1 252112Z 10014KT 31/20 A2994 RMK A01 T03140196  RH  050%=      5-min Rain = 0
KDO1 252113Z 10010G15KT 31/20 A2994 RMK A01 T03130196  RH  050%=      5-min Rain = 0
KDO1 252114Z 10010KT 31/20 A2994 RMK A01 T03130198  RH  050%=      5-min Rain = 0
KDO1 252115Z 10012KT 31/20 A2994 RMK A01 T03130196  RH  050%=      5-min Rain = 0
KDO1 252116Z 09013KT 31/20 A2994 RMK A01 T03130195  RH  049%=      5-min Rain = 0
KDO1 252117Z 09014KT 31/20 A2994 RMK A01 T03140195  RH  049%=      5-min Rain = 0
KDO1 252118Z 09013KT 31/19 A2994 RMK A01 T03130193  RH  049%=      5-min Rain = 0
KDO1 252119Z 09014KT 31/19 A2994 RMK A01 T03130193  RH  049%=      5-min Rain = 0
KDO1 252120Z 09013KT 31/19 A2994 RMK A01 T03130192  RH  049%=      5-min Rain = 0
KDO1 252121Z 09013KT 31/19 A2994 RMK A01 T03130194  RH  049%=      5-min Rain = 0
KDO1 252122Z 09012KT 31/20 A2994 RMK A01 T03130195  RH  049%=      5-min Rain = 0
KDO1 252123Z 09011KT 31/20 A2994 RMK A01 T03130196  RH  050%=      5-min Rain = 0
KDO1 252124Z 09012KT 31/19 A2994 RMK A01 T03130194  RH  049%=      5-min Rain = 0
KDO1 252125Z 09014KT 31/19 A2994 RMK A01 T03130194  RH  049%=      5-min Rain = 0
KDO1 252126Z 09012KT 31/19 A2994 RMK A01 T03130194  RH  049%=      5-min Rain = 0
KDO1 252127Z 09014KT 31/19 A2994 RMK A01 T03120193  RH  049%=      5-min Rain = 0
KDO1 252128Z 09014KT 31/19 A2994 RMK A01 T03120192  RH  049%=      5-min Rain = 0
KDO1 252129Z 10011KT 31/19 A2994 RMK A01 T03120191  RH  049%=      5-min Rain = 0
KDO1 252130Z 10013KT 31/19 A2994 RMK A01 T03130193  RH  049%=      5-min Rain = 0
KDO1 252131Z 10012KT 31/19 A2994 RMK A01 T03120191  RH  049%=      5-min Rain = 0
KDO1 252132Z 10011KT 31/19 A2994 RMK A01 T03130193  RH  049%=      5-min Rain = 0
KDO1 252133Z 10010KT 31/19 A2994 RMK A01 T03120193  RH  049%=      5-min Rain = 0
KDO1 252134Z 09011KT 31/19 A2994 RMK A01 T03120194  RH  049%=      5-min Rain = 0
KDO1 252135Z 10011KT 31/19 A2994 RMK A01 T03120193  RH  049%=      5-min Rain = 0
KDO1 252136Z 09012KT 31/19 A2994 RMK A01 T03120192  RH  049%=      5-min Rain = 0
KDO1 252137Z 09011KT 31/19 A2994 RMK A01 T03120192  RH  049%=      5-min Rain = 0
KDO1 252138Z 09009KT 31/19 A2994 RMK A01 T03120191  RH  049%=      5-min Rain = 0
KDO1 252139Z 08010KT 31/19 A2994 RMK A01 T03120191  RH  049%=      5-min Rain = 0
KDO1 252140Z 08013KT 31/19 A2994 RMK A01 T03120191  RH  049%=      5-min Rain = 0
KDO1 252141Z 08012KT 31/19 A2994 RMK A01 T03120188  RH  048%=      5-min Rain = 0
KDO1 252142Z 09010KT 31/19 A2993 RMK A01 T03120190  RH  048%=      5-min Rain = 0
KDO1 252143Z 10008KT 31/19 A2993 RMK A01 T03110191  RH  049%=      5-min Rain = 0
KDO1 252144Z 09009KT 31/19 A2993 RMK A01 T03110192  RH  049%=      5-min Rain = 0
KDO1 252145Z 11006KT 31/20 A2993 RMK A01 T03100196  RH  051%=      5-min Rain = 0
KDO1 252146Z 12005KT 31/20 A2993 RMK A01 T03100199  RH  052%=      5-min Rain = 0
KDO1 252147Z 12005KT 31/20 A2993 RMK A01 T03100200  RH  052%=      5-min Rain = 0
KDO1 252148Z 14005KT 31/20 A2993 RMK A01 T03100199  RH  052%=      5-min Rain = 0
KDO1 252149Z 14008KT 31/19 A2993 RMK A01 T03100188  RH  048%=      5-min Rain = 0
KDO1 252150Z 13008KT 31/19 A2993 RMK A01 T03110185  RH  047%=      5-min Rain = 0
KDO1 252151Z 14007KT 31/19 A2994 RMK A01 T03120189  RH  048%=      5-min Rain = 0
KDO1 252152Z 14011KT 31/18 A2994 RMK A01 T03120182  RH  046%=      5-min Rain = 0
KDO1 252153Z 14011KT 31/18 A2994 RMK A01 T03130178  RH  044%=      5-min Rain = 0
KDO1 252154Z 14010KT 31/18 A2994 RMK A01 T03140177  RH  044%=      5-min Rain = 0
KDO1 252155Z 14010KT 31/18 A2994 RMK A01 T03140177  RH  044%=      5-min Rain = 0
KDO1 252156Z 14009KT 32/18 A2994 RMK A01 T03150177  RH  044%=      5-min Rain = 0
KDO1 252157Z 13007KT 32/18 A2994 RMK A01 T03150180  RH  045%=      5-min Rain = 0
KDO1 252158Z 13007KT 32/18 A2994 RMK A01 T03150182  RH  045%=      5-min Rain = 0
KDO1 252159Z 13007KT 31/18 A2994 RMK A01 T03140181  RH  045%=      5-min Rain = 0
KDO1 252200Z 14006KT 31/18 A2994 RMK A01 T03140184  RH  046%=      5-min Rain = 0
KDO1 252201Z 14007KT 31/18 A2993 RMK A01 T03130183  RH  046%=      5-min Rain = 0
KDO1 252202Z 14005KT 31/18 A2993 RMK A01 T03120183  RH  046%=      5-min Rain = 0
KDO1 252203Z 15007KT 31/18 A2993 RMK A01 T03120184  RH  047%=      5-min Rain = 0
KDO1 252204Z 14008KT 31/18 A2993 RMK A01 T03110181  RH  046%=      5-min Rain = 0
KDO1 252205Z 15007KT 31/18 A2993 RMK A01 T03110181  RH  046%=      5-min Rain = 0
KDO1 252206Z 15008KT 31/18 A2993 RMK A01 T03110180  RH  046%=      5-min Rain = 0
KDO1 252207Z 15009KT 31/18 A2993 RMK A01 T03120179  RH  045%=      5-min Rain = 0
KDO1 252208Z 14008KT 31/18 A2993 RMK A01 T03130179  RH  045%=      5-min Rain = 0
KDO1 252209Z 15006KT 31/18 A2993 RMK A01 T03120181  RH  046%=      5-min Rain = 0
KDO1 252210Z 15008KT 31/18 A2993 RMK A01 T03120181  RH  046%=      5-min Rain = 0
KDO1 252211Z 14006KT 31/18 A2993 RMK A01 T03120183  RH  046%=      5-min Rain = 0
KDO1 252212Z 15007KT 31/18 A2993 RMK A01 T03110184  RH  047%=      5-min Rain = 0
KDO1 252213Z 15007KT 31/18 A2993 RMK A01 T03110182  RH  046%=      5-min Rain = 0
KDO1 252214Z 15006KT 31/18 A2993 RMK A01 T03110181  RH  046%=      5-min Rain = 0
KDO1 252215Z 16006KT 31/18 A2994 RMK A01 T03110181  RH  046%=      5-min Rain = 0
KDO1 252216Z 15005KT 31/18 A2994 RMK A01 T03110182  RH  046%=      5-min Rain = 0
KDO1 252217Z 15007KT 31/18 A2994 RMK A01 T03110183  RH  047%=      5-min Rain = 0
KDO1 252218Z 15007KT 31/18 A2994 RMK A01 T03100182  RH  046%=      5-min Rain = 0
KDO1 252219Z 15008KT 31/18 A2994 RMK A01 T03100182  RH  046%=      5-min Rain = 0
KDO1 252220Z 15007KT 31/18 A2994 RMK A01 T03100181  RH  046%=      5-min Rain = 0
KDO1 252221Z 15008KT 31/18 A2994 RMK A01 T03100180  RH  046%=      5-min Rain = 0
KDO1 252222Z 15010KT 31/18 A2994 RMK A01 T03100178  RH  045%=      5-min Rain = 0
KDO1 252223Z 15008KT 31/18 A2994 RMK A01 T03100177  RH  045%=      5-min Rain = 0
KDO1 252224Z 15009KT 31/18 A2994 RMK A01 T03100178  RH  045%=      5-min Rain = 0
KDO1 252225Z 15008KT 31/18 A2994 RMK A01 T03100177  RH  045%=      5-min Rain = 0
KDO1 252226Z 15008KT 31/18 A2994 RMK A01 T03100179  RH  045%=      5-min Rain = 0
KDO1 252227Z 14007KT 31/18 A2994 RMK A01 T03100179  RH  046%=      5-min Rain = 0
KDO1 252228Z 15006KT 31/18 A2994 RMK A01 T03090180  RH  046%=      5-min Rain = 0
KDO1 252229Z 15007KT 31/18 A2994 RMK A01 T03080180  RH  046%=      5-min Rain = 0
KDO1 252230Z 15007KT 31/18 A2994 RMK A01 T03080179  RH  046%=      5-min Rain = 0
KDO1 252231Z 15007KT 31/18 A2994 RMK A01 T03080179  RH  046%=      5-min Rain = 0
KDO1 252232Z 14008KT 31/18 A2995 RMK A01 T03080177  RH  046%=      5-min Rain = 0
KDO1 252233Z 14007KT 31/18 A2995 RMK A01 T03080178  RH  046%=      5-min Rain = 0
KDO1 252234Z 14006KT 31/18 A2995 RMK A01 T03080179  RH  046%=      5-min Rain = 0
KDO1 252235Z 14006KT 31/18 A2995 RMK A01 T03080179  RH  046%=      5-min Rain = 0
KDO1 252236Z 14006KT 31/18 A2995 RMK A01 T03070180  RH  047%=      5-min Rain = 0
KDO1 252237Z 14005KT 31/18 A2995 RMK A01 T03070180  RH  047%=      5-min Rain = 0
KDO1 252238Z 14006KT 31/18 A2995 RMK A01 T03060180  RH  047%=      5-min Rain = 0
KDO1 252239Z 13005KT 31/18 A2995 RMK A01 T03060180  RH  047%=      5-min Rain = 0
KDO1 252240Z 13005KT 31/18 A2995 RMK A01 T03050181  RH  047%=      5-min Rain = 0
KDO1 252241Z 13006KT 31/18 A2995 RMK A01 T03050183  RH  048%=      5-min Rain = 0
KDO1 252242Z 13005KT 30/18 A2994 RMK A01 T03040183  RH  048%=      5-min Rain = 0
KDO1 252243Z 13006KT 30/18 A2994 RMK A01 T03030184  RH  049%=      5-min Rain = 0
KDO1 252244Z 13005KT 30/18 A2994 RMK A01 T03020184  RH  049%=      5-min Rain = 0
KDO1 252245Z 12006KT 30/18 A2994 RMK A01 T03010184  RH  050%=      5-min Rain = 0
KDO1 252246Z 13006KT 30/18 A2994 RMK A01 T03000183  RH  049%=      5-min Rain = 0
KDO1 252247Z 13006KT 30/18 A2994 RMK A01 T03000184  RH  050%=      5-min Rain = 0
KDO1 252248Z 13005KT 30/19 A2993 RMK A01 T02990185  RH  050%=      5-min Rain = 0
KDO1 252249Z 12006KT 30/19 A2993 RMK A01 T02990186  RH  051%=      5-min Rain = 0
KDO1 252250Z 12007KT 30/19 A2993 RMK A01 T02980186  RH  051%=      5-min Rain = 0
KDO1 252251Z 12007KT 30/19 A2993 RMK A01 T02970185  RH  051%=      5-min Rain = 0
KDO1 252252Z 12008KT 30/19 A2993 RMK A01 T02970185  RH  051%=      5-min Rain = 0
KDO1 252253Z 13010KT 30/19 A2992 RMK A01 T02960185  RH  051%=      5-min Rain = 0
KDO1 252254Z 12010KT 30/18 A2992 RMK A01 T02960184  RH  051%=      5-min Rain = 0
KDO1 252255Z 12010KT 30/18 A2992 RMK A01 T02960182  RH  050%=      5-min Rain = 0
KDO1 252256Z 12008KT 30/18 A2992 RMK A01 T02980183  RH  050%=      5-min Rain = 0
KDO1 252257Z 12010KT 30/18 A2992 RMK A01 T02980184  RH  051%=      5-min Rain = 0
KDO1 252258Z 13010KT 30/18 A2992 RMK A01 T02980184  RH  050%=      5-min Rain = 0
KDO1 252259Z 12009KT 30/18 A2993 RMK A01 T02980183  RH  050%=      5-min Rain = 0
KDO1 252300Z 13011KT 30/18 A2993 RMK A01 T02980183  RH  050%=      5-min Rain = 0
KDO1 252301Z 13010KT 30/18 A2993 RMK A01 T02980182  RH  050%=      5-min Rain = 0
KDO1 252302Z 13010KT 30/18 A2993 RMK A01 T02990183  RH  050%=      5-min Rain = 0
KDO1 252303Z 13009KT 30/18 A2993 RMK A01 T02990183  RH  050%=      5-min Rain = 0
KDO1 252304Z 13008KT 30/18 A2993 RMK A01 T02990184  RH  050%=      5-min Rain = 0
KDO1 252305Z 14008KT 30/19 A2993 RMK A01 T02990185  RH  050%=      5-min Rain = 0
KDO1 252306Z 13008KT 30/19 A2993 RMK A01 T02990186  RH  051%=      5-min Rain = 0
KDO1 252307Z 13009KT 30/19 A2994 RMK A01 T02980185  RH  051%=      5-min Rain = 0
KDO1 252308Z 14006KT 30/19 A2994 RMK A01 T02980186  RH  051%=      5-min Rain = 0
KDO1 252309Z 14008KT 30/19 A2994 RMK A01 T02980187  RH  051%=      5-min Rain = 0
KDO1 252310Z 14008KT 30/19 A2994 RMK A01 T02980187  RH  051%=      5-min Rain = 0
KDO1 252311Z 14008KT 30/19 A2994 RMK A01 T02980187  RH  051%=      5-min Rain = 0
KDO1 252312Z 14008KT 30/19 A2995 RMK A01 T02980187  RH  051%=      5-min Rain = 0
KDO1 252313Z 15008KT 30/19 A2995 RMK A01 T02980187  RH  051%=      5-min Rain = 0
KDO1 252314Z 15007KT 30/19 A2995 RMK A01 T02980186  RH  051%=      5-min Rain = 0
KDO1 252315Z 14006KT 30/19 A2995 RMK A01 T02980187  RH  051%=      5-min Rain = 0
KDO1 252316Z 14005KT 30/19 A2996 RMK A01 T02990188  RH  051%=      5-min Rain = 0
KDO1 252317Z 14003KT 30/19 A2996 RMK A01 T02990188  RH  052%=      5-min Rain = 0
KDO1 252318Z 14004KT 30/19 A2996 RMK A01 T02990189  RH  052%=      5-min Rain = 0
KDO1 252319Z 15005KT 30/19 A2996 RMK A01 T02980189  RH  052%=      5-min Rain = 0
KDO1 252320Z 13003KT 30/19 A2996 RMK A01 T02980188  RH  052%=      5-min Rain = 0
KDO1 252321Z 13003KT 30/19 A2996 RMK A01 T02980190  RH  052%=      5-min Rain = 0
KDO1 252322Z 11002KT 30/19 A2996 RMK A01 T02970189  RH  052%=      5-min Rain = 0
KDO1 252323Z 09001KT 30/19 A2996 RMK A01 T02980190  RH  052%=      5-min Rain = 0
KDO1 252324Z 08002KT 30/19 A2996 RMK A01 T02970189  RH  052%=      5-min Rain = 0
KDO1 252325Z 07001KT 30/19 A2996 RMK A01 T02970191  RH  053%=      5-min Rain = 0
KDO1 252326Z 07001KT 30/19 A2996 RMK A01 T02960190  RH  053%=      5-min Rain = 0
KDO1 252327Z 04001KT 30/19 A2996 RMK A01 T02960192  RH  054%=      5-min Rain = 0
KDO1 252328Z 05001KT 30/19 A2996 RMK A01 T02950192  RH  054%=      5-min Rain = 0
KDO1 252329Z 02001KT 30/19 A2996 RMK A01 T02950193  RH  054%=      5-min Rain = 0
KDO1 252330Z 02001KT 30/19 A2997 RMK A01 T02950193  RH  054%=      5-min Rain = 0
KDO1 252331Z 03000KT 29/19 A2997 RMK A01 T02940194  RH  055%=      5-min Rain = 0
KDO1 252332Z 05000KT 29/19 A2997 RMK A01 T02930191  RH  054%=      5-min Rain = 0
KDO1 252333Z 10001KT 29/19 A2997 RMK A01 T02930194  RH  055%=      5-min Rain = 0
KDO1 252334Z 07001KT 29/20 A2997 RMK A01 T02930196  RH  056%=      5-min Rain = 0
KDO1 252335Z 08002KT 29/20 A2997 RMK A01 T02930195  RH  056%=      5-min Rain = 0
KDO1 252336Z 07002KT 29/19 A2997 RMK A01 T02920194  RH  056%=      5-min Rain = 0
KDO1 252337Z 07002KT 29/20 A2997 RMK A01 T02920195  RH  056%=      5-min Rain = 0
KDO1 252338Z 08002KT 29/19 A2997 RMK A01 T02920193  RH  055%=      5-min Rain = 0
KDO1 252339Z 09003KT 29/19 A2997 RMK A01 T02920192  RH  055%=      5-min Rain = 0
KDO1 252340Z 09003KT 29/19 A2997 RMK A01 T02920194  RH  055%=      5-min Rain = 0
KDO1 252341Z 10003KT 29/20 A2997 RMK A01 T02920197  RH  057%=      5-min Rain = 0
KDO1 252342Z 10004KT 29/20 A2997 RMK A01 T02910200  RH  058%=      5-min Rain = 0
KDO1 252343Z 10005KT 29/20 A2997 RMK A01 T02890202  RH  059%=      5-min Rain = 0
KDO1 252344Z 11005KT 29/20 A2997 RMK A01 T02870201  RH  060%=      5-min Rain = 0
KDO1 252345Z 11006KT 29/20 A2997 RMK A01 T02850203  RH  061%=      5-min Rain = 0
KDO1 252346Z 12006KT 28/21 A2997 RMK A01 T02830212  RH  065%=      5-min Rain = 0
KDO1 252347Z 12006KT 28/21 A2997 RMK A01 T02800212  RH  066%=      5-min Rain = 0
KDO1 252348Z 13007KT 28/21 A2997 RMK A01 T02770211  RH  067%=      5-min Rain = 0
KDO1 252349Z 13007KT 27/21 A2997 RMK A01 T02740212  RH  069%=      5-min Rain = 0
KDO1 252350Z 14008KT 27/21 A2997 RMK A01 T02710214  RH  071%=      5-min Rain = 0
KDO1 252351Z 15008KT 27/21 A2997 RMK A01 T02690210  RH  070%=      5-min Rain = 0
KDO1 252352Z 15009KT 27/21 A2997 RMK A01 T02660210  RH  071%=      5-min Rain = 0
KDO1 252353Z 16009KT 27/21 A2997 RMK A01 T02650210  RH  072%=      5-min Rain = 0
KDO1 252354Z 16009KT 26/21 A2997 RMK A01 T02630208  RH  072%=      5-min Rain = 0
KDO1 252355Z 16010KT 26/21 A2997 RMK A01 T02630209  RH  072%=      5-min Rain = 0
KDO1 252356Z 17011KT 26/21 A2997 RMK A01 T02630210  RH  072%=      5-min Rain = 0
KDO1 252357Z 17012KT 26/21 A2997 RMK A01 T02620209  RH  072%=      5-min Rain = 0
KDO1 252358Z 18012KT 26/21 A2998 RMK A01 T02620210  RH  073%=      5-min Rain = 0
KDO1 252359Z 19010KT 26/21 A2998 RMK A01 T02630211  RH  073%=      5-min Rain = 0
KDO1 260000Z 22008KT 26/21 A2999 RMK A01 T02620214  RH  075%=      5-min Rain = 0
KDO1 260001Z 28012G18KT 26/22 A30 RMK A01 T02610217  RH  077%=      5-min Rain = 0
KDO1 260002Z 29015G21KT 26/21 A30 RMK A01 T02600208  RH  073%=      5-min Rain = 0.01
KDO1 260003Z 29016G21KT 26/17 A30 RMK A01 T02610169  RH  057%=      5-min Rain = 0
KDO1 260004Z 29016G22KT 26/16 A30 RMK A01 T02630163  RH  054%=      5-min Rain = 0
KDO1 260005Z 28014KT 26/16 A3001 RMK A01 T02630163  RH  054%=      5-min Rain = 0
KDO1 260006Z 27011KT 26/17 A3001 RMK A01 T02630165  RH  055%=      5-min Rain = 0
KDO1 260007Z 28010KT 26/17 A3001 RMK A01 T02620166  RH  055%=      5-min Rain = 0
KDO1 260008Z 27011G19KT 26/16 A3001 RMK A01 T02610164  RH  055%=      5-min Rain = 0
KDO1 260009Z 28020KT 26/15 A3001 RMK A01 T02610154  RH  052%=      5-min Rain = 0
KDO1 260010Z 28020KT 26/15 A3001 RMK A01 T02620148  RH  049%=      5-min Rain = 0
KDO1 260011Z 29018G25KT 26/15 A3001 RMK A01 T02620147  RH  049%=      5-min Rain = 0
KDO1 260012Z 29016G21KT 26/15 A3001 RMK A01 T02610149  RH  050%=      5-min Rain = 0
KDO1 260013Z 28018G23KT 26/15 A3002 RMK A01 T02600147  RH  050%=      5-min Rain = 0
KDO1 260014Z 28016KT 26/15 A3002 RMK A01 T02600146  RH  050%=      5-min Rain = 0
KDO1 260015Z 28018KT 26/15 A3002 RMK A01 T02590147  RH  050%=      5-min Rain = 0
KDO1 260016Z 27017KT 26/15 A3003 RMK A01 T02590146  RH  050%=      5-min Rain = 0
KDO1 260017Z 27017KT 26/15 A3003 RMK A01 T02570147  RH  051%=      5-min Rain = 0
KDO1 260018Z 27018KT 25/15 A3003 RMK A01 T02540150  RH  052%=      5-min Rain = 0
KDO1 260019Z 27017G22KT 25/15 A3003 RMK A01 T02500150  RH  054%=      5-min Rain = 0
KDO1 260020Z 27016G21KT 25/15 A3003 RMK A01 T02470150  RH  055%=      5-min Rain = 0
KDO1 260021Z 28017G22KT 24/15 A3003 RMK A01 T02430150  RH  056%=      5-min Rain = 0
KDO1 260022Z 27017KT 24/15 A3003 RMK A01 T02400149  RH  057%=      5-min Rain = 0
KDO1 260023Z 27018G23KT 24/15 A3003 RMK A01 T02360150  RH  059%=      5-min Rain = 0
KDO1 260024Z 27020G25KT 23/15 A3003 RMK A01 T02320151  RH  060%=      5-min Rain = 0
KDO1 260025Z 27018G25KT 23/15 A3003 RMK A01 T02280149  RH  061%=      5-min Rain = 0
KDO1 260026Z 28017G24KT 23/15 A3003 RMK A01 T02250149  RH  062%=      5-min Rain = 0
KDO1 260027Z 27016KT 22/15 A3003 RMK A01 T02240148  RH  062%=      5-min Rain = 0
KDO1 260028Z 28019KT 22/15 A3003 RMK A01 T02230145  RH  061%=      5-min Rain = 0
KDO1 260029Z 29016KT 23/14 A3003 RMK A01 T02250144  RH  060%=      5-min Rain = 0
KDO1 260030Z 28020G25KT 23/15 A3003 RMK A01 T02250146  RH  061%=      5-min Rain = 0
KDO1 260031Z 28019G25KT 23/14 A3003 RMK A01 T02250144  RH  060%=      5-min Rain = 0
KDO1 260032Z 28021G26KT 23/15 A3003 RMK A01 T02260146  RH  060%=      5-min Rain = 0.02
KDO1 260033Z 28020KT 23/15 A3003 RMK A01 T02260145  RH  060%=      5-min Rain = 0
KDO1 260034Z 28019KT 23/15 A3003 RMK A01 T02260145  RH  060%=      5-min Rain = 0
KDO1 260035Z 27019KT 23/15 A3003 RMK A01 T02260146  RH  061%=      5-min Rain = 0
KDO1 260036Z 28018KT 23/15 A3003 RMK A01 T02250147  RH  061%=      5-min Rain = 0
KDO1 260037Z 28016KT 22/15 A3003 RMK A01 T02230148  RH  063%=      5-min Rain = 0
KDO1 260038Z 27015G20KT 22/15 A3003 RMK A01 T02220147  RH  063%=      5-min Rain = 0
KDO1 260039Z 27014KT 22/15 A3003 RMK A01 T02210149  RH  063%=      5-min Rain = 0
KDO1 260040Z 27018G27KT 22/14 A3002 RMK A01 T02210144  RH  061%=      5-min Rain = 0
KDO1 260041Z 28022G29KT 22/15 A3003 RMK A01 T02240145  RH  061%=      5-min Rain = 0.01
KDO1 260042Z 29023KT 22/15 A3003 RMK A01 T02240145  RH  061%=      5-min Rain = 0
KDO1 260043Z 29019G26KT 23/14 A3003 RMK A01 T02250142  RH  059%=      5-min Rain = 0
KDO1 260044Z 29016G21KT 23/14 A3003 RMK A01 T02280139  RH  057%=      5-min Rain = 0
KDO1 260045Z 29018G24KT 23/13 A3003 RMK A01 T02320133  RH  053%=      5-min Rain = 0
KDO1 260046Z 29018KT 24/13 A3004 RMK A01 T02380133  RH  052%=      5-min Rain = 0.01
KDO1 260047Z 29017KT 24/14 A3004 RMK A01 T02400136  RH  052%=      5-min Rain = 0
KDO1 260048Z 30017G24KT 24/14 A3004 RMK A01 T02400135  RH  052%=      5-min Rain = 0
KDO1 260049Z 31019G25KT 24/13 A3005 RMK A01 T02400128  RH  049%=      5-min Rain = 0
KDO1 260050Z 29017G23KT 25/12 A3004 RMK A01 T02470120  RH  045%=      5-min Rain = 0
KDO1 260051Z 30013KT 25/12 A3004 RMK A01 T02540120  RH  043%=      5-min Rain = 0.01
KDO1 260052Z 28012G17KT 26/12 A3004 RMK A01 T02560117  RH  042%=      5-min Rain = 0
KDO1 260053Z 30011KT 26/13 A3004 RMK A01 T02570127  RH  044%=      5-min Rain = 0
KDO1 260054Z 31011KT 25/13 A3004 RMK A01 T02540129  RH  046%=      5-min Rain = 0
KDO1 260055Z 31013G19KT 25/13 A3005 RMK A01 T02510129  RH  047%=      5-min Rain = 0
KDO1 260056Z 32015KT 25/13 A3005 RMK A01 T02500131  RH  048%=      5-min Rain = 0
KDO1 260057Z 32012KT 25/14 A3005 RMK A01 T02470137  RH  050%=      5-min Rain = 0
KDO1 260058Z 32010KT 24/14 A3005 RMK A01 T02420141  RH  054%=      5-min Rain = 0
KDO1 260059Z 32010KT 24/14 A3005 RMK A01 T02370142  RH  055%=      5-min Rain = 0
KDO1 260100Z 32011KT 24/14 A3005 RMK A01 T02350142  RH  056%=      5-min Rain = 0
KDO1 260101Z 31013KT 24/13 A3005 RMK A01 T02350134  RH  053%=      5-min Rain = 0
KDO1 260102Z 32011KT 24/14 A3006 RMK A01 T02390137  RH  053%=      5-min Rain = 0
KDO1 260103Z 31011KT 24/14 A3006 RMK A01 T02390141  RH  054%=      5-min Rain = 0
KDO1 260104Z 30011KT 24/14 A3006 RMK A01 T02380140  RH  054%=      5-min Rain = 0
KDO1 260105Z 30010KT 24/14 A3006 RMK A01 T02370137  RH  053%=      5-min Rain = 0
KDO1 260106Z 31009G14KT 24/14 A3006 RMK A01 T02390138  RH  053%=      5-min Rain = 0
KDO1 260107Z 30009KT 24/14 A3006 RMK A01 T02390137  RH  053%=      5-min Rain = 0
KDO1 260108Z 31009KT 24/14 A3006 RMK A01 T02390138  RH  053%=      5-min Rain = 0
KDO1 260109Z 31009G16KT 24/14 A3006 RMK A01 T02390144  RH  055%=      5-min Rain = 0
KDO1 260110Z 30010KT 24/14 A3006 RMK A01 T02380136  RH  053%=      5-min Rain = 0
KDO1 260111Z 31009KT 24/14 A3007 RMK A01 T02390137  RH  053%=      5-min Rain = 0
KDO1 260112Z 32010KT 24/14 A3007 RMK A01 T02400139  RH  053%=      5-min Rain = 0
KDO1 260113Z 31009KT 24/14 A3007 RMK A01 T02400138  RH  053%=      5-min Rain = 0
KDO1 260114Z 32007KT 24/14 A3007 RMK A01 T02390141  RH  054%=      5-min Rain = 0
KDO1 260115Z 31008KT 24/14 A3007 RMK A01 T02380141  RH  054%=      5-min Rain = 0
KDO1 260116Z 30009KT 24/13 A3007 RMK A01 T02370132  RH  052%=      5-min Rain = 0
KDO1 260117Z 29008KT 24/13 A3007 RMK A01 T02420128  RH  049%=      5-min Rain = 0
KDO1 260118Z 29008KT 25/13 A3007 RMK A01 T02450129  RH  048%=      5-min Rain = 0.01
KDO1 260119Z 29007KT 25/13 A3007 RMK A01 T02470128  RH  047%=      5-min Rain = 0
KDO1 260120Z 29007KT 25/13 A3008 RMK A01 T02480131  RH  048%=      5-min Rain = 0
KDO1 260121Z 29007KT 25/13 A3008 RMK A01 T02470129  RH  048%=      5-min Rain = 0
KDO1 260122Z 28006KT 25/13 A3008 RMK A01 T02470134  RH  049%=      5-min Rain = 0
KDO1 260123Z 26008KT 25/14 A3008 RMK A01 T02450139  RH  052%=      5-min Rain = 0
KDO1 260124Z 26008KT 24/14 A3008 RMK A01 T02410142  RH  054%=      5-min Rain = 0
KDO1 260125Z 25008KT 24/14 A3008 RMK A01 T02390144  RH  056%=      5-min Rain = 0
KDO1 260126Z 24007KT 24/14 A3008 RMK A01 T02370140  RH  055%=      5-min Rain = 0
KDO1 260127Z 23007KT 24/15 A3008 RMK A01 T02360146  RH  057%=      5-min Rain = 0
KDO1 260128Z 21008KT 23/16 A3008 RMK A01 T02330158  RH  063%=      5-min Rain = 0
KDO1 260129Z 23008KT 23/16 A3008 RMK A01 T02270163  RH  067%=      5-min Rain = 0.01
KDO1 260130Z 22009KT 22/17 A3009 RMK A01 T02210168  RH  072%=      5-min Rain = 0
KDO1 260131Z 22009KT 22/17 A3009 RMK A01 T02160168  RH  074%=      5-min Rain = 0
KDO1 260132Z 22008KT 21/17 A3009 RMK A01 T02130168  RH  075%=      5-min Rain = 0
KDO1 260133Z 22008KT 21/17 A3009 RMK A01 T02120170  RH  077%=      5-min Rain = 0
KDO1 260134Z 22009KT 21/17 A3009 RMK A01 T02100172  RH  079%=      5-min Rain = 0.01
KDO1 260135Z 21010KT 21/17 A3009 RMK A01 T02090173  RH  080%=      5-min Rain = 0
KDO1 260136Z 20011KT 21/17 A3009 RMK A01 T02080172  RH  080%=      5-min Rain = 0
KDO1 260137Z 19011KT 21/17 A3009 RMK A01 T02090170  RH  078%=      5-min Rain = 0
KDO1 260138Z 18012KT 21/17 A3009 RMK A01 T02100170  RH  078%=      5-min Rain = 0
KDO1 260139Z 19013KT 21/17 A3009 RMK A01 T02100170  RH  078%=      5-min Rain = 0.01
KDO1 260140Z 19014KT 21/17 A3009 RMK A01 T02100168  RH  077%=      5-min Rain = 0
KDO1 260141Z 19015KT 21/16 A3009 RMK A01 T02110164  RH  074%=      5-min Rain = 0
KDO1 260142Z 19016KT 21/17 A3009 RMK A01 T02140166  RH  074%=      5-min Rain = 0
KDO1 260143Z 18017KT 21/17 A3009 RMK A01 T02130167  RH  075%=      5-min Rain = 0
KDO1 260144Z 18015KT 21/16 A3009 RMK A01 T02120164  RH  074%=      5-min Rain = 0
KDO1 260145Z 18015KT 21/17 A301 RMK A01 T02110165  RH  075%=      5-min Rain = 0
KDO1 260146Z 17015KT 21/16 A301 RMK A01 T02090164  RH  075%=      5-min Rain = 0
KDO1 260147Z 17013KT 21/17 A301 RMK A01 T02090166  RH  077%=      5-min Rain = 0
KDO1 260148Z 17014G19KT 21/17 A3009 RMK A01 T02070167  RH  078%=      5-min Rain = 0.01
KDO1 260149Z 18016KT 21/17 A3009 RMK A01 T02060169  RH  079%=      5-min Rain = 0
KDO1 260150Z 17016KT 21/17 A3009 RMK A01 T02050168  RH  079%=      5-min Rain = 0
KDO1 260151Z 17016KT 21/17 A3009 RMK A01 T02060166  RH  078%=      5-min Rain = 0
KDO1 260152Z 16016KT 21/16 A3009 RMK A01 T02060162  RH  076%=      5-min Rain = 0
KDO1 260153Z 16015KT 21/16 A3009 RMK A01 T02080157  RH  072%=      5-min Rain = 0
KDO1 260154Z 16015KT 21/16 A3009 RMK A01 T02120160  RH  072%=      5-min Rain = 0
KDO1 260155Z 15015KT 21/16 A3008 RMK A01 T02120162  RH  073%=      5-min Rain = 0
KDO1 260156Z 14014KT 21/16 A3008 RMK A01 T02110163  RH  074%=      5-min Rain = 0
KDO1 260157Z 13014KT 21/17 A3007 RMK A01 T02080166  RH  077%=      5-min Rain = 0
KDO1 260158Z 14016KT 21/17 A3007 RMK A01 T02050167  RH  079%=      5-min Rain = 0
KDO1 260159Z 13015KT 20/16 A3006 RMK A01 T02030164  RH  078%=      5-min Rain = 0
KDO1 260200Z 14015KT 20/16 A3006 RMK A01 T02030163  RH  078%=      5-min Rain = 0
KDO1 260201Z 14016KT 20/16 A3005 RMK A01 T02030164  RH  078%=      5-min Rain = 0
KDO1 260202Z 14016KT 20/16 A3005 RMK A01 T02030163  RH  078%=      5-min Rain = 0
KDO1 260203Z 13021KT 20/16 A3005 RMK A01 T02040157  RH  074%=      5-min Rain = 0
KDO1 260204Z 14019G25KT 21/16 A3004 RMK A01 T02090156  RH  072%=      5-min Rain = 0
KDO1 260205Z 16021KT 21/16 A3004 RMK A01 T02110156  RH  071%=      5-min Rain = 0
KDO1 260206Z 15020G25KT 21/16 A3005 RMK A01 T02120155  RH  070%=      5-min Rain = 0
KDO1 260207Z 15018G26KT 21/16 A3005 RMK A01 T02130155  RH  070%=      5-min Rain = 0
KDO1 260208Z 15017G25KT 21/15 A3005 RMK A01 T02130154  RH  069%=      5-min Rain = 0
KDO1 260209Z 16017G24KT 21/16 A3005 RMK A01 T02130155  RH  069%=      5-min Rain = 0
KDO1 260210Z 15019KT 22/15 A3005 RMK A01 T02150151  RH  067%=      5-min Rain = 0
KDO1 260211Z 16017KT 22/15 A3005 RMK A01 T02170150  RH  065%=      5-min Rain = 0
KDO1 260212Z 16018G27KT 22/15 A3005 RMK A01 T02190149  RH  064%=      5-min Rain = 0
KDO1 260213Z 16020KT 22/15 A3004 RMK A01 T02210147  RH  063%=      5-min Rain = 0
KDO1 260214Z 16020G25KT 22/15 A3004 RMK A01 T02230145  RH  061%=      5-min Rain = 0
KDO1 260215Z 16018KT 23/14 A3004 RMK A01 T02260143  RH  059%=      5-min Rain = 0
KDO1 260216Z 15017G24KT 23/15 A3004 RMK A01 T02280145  RH  059%=      5-min Rain = 0
KDO1 260217Z 15018G24KT 23/14 A3004 RMK A01 T02290139  RH  057%=      5-min Rain = 0
KDO1 260218Z 15017KT 23/14 A3004 RMK A01 T02320139  RH  056%=      5-min Rain = 0
KDO1 260219Z 14018G24KT 23/14 A3004 RMK A01 T02340136  RH  054%=      5-min Rain = 0
KDO1 260220Z 13019KT 24/14 A3004 RMK A01 T02350135  RH  053%=      5-min Rain = 0
KDO1 260221Z 12016KT 24/14 A3004 RMK A01 T02380137  RH  053%=      5-min Rain = 0
KDO1 260222Z 12014KT 24/14 A3004 RMK A01 T02370142  RH  055%=      5-min Rain = 0
KDO1 260223Z 13012G19KT 23/14 A3004 RMK A01 T02340144  RH  057%=      5-min Rain = 0
KDO1 260224Z 13012KT 23/15 A3004 RMK A01 T02310145  RH  058%=      5-min Rain = 0
KDO1 260225Z 14012G18KT 23/14 A3004 RMK A01 T02290141  RH  058%=      5-min Rain = 0
KDO1 260226Z 14013KT 23/14 A3004 RMK A01 T02290141  RH  058%=      5-min Rain = 0
KDO1 260227Z 14017G24KT 23/14 A3004 RMK A01 T02300137  RH  056%=      5-min Rain = 0
KDO1 260228Z 15020G27KT 23/14 A3004 RMK A01 T02320135  RH  054%=      5-min Rain = 0
KDO1 260229Z 15018G23KT 24/14 A3004 RMK A01 T02360135  RH  053%=      5-min Rain = 0
KDO1 260230Z 15019KT 24/14 A3004 RMK A01 T02370136  RH  053%=      5-min Rain = 0
KDO1 260231Z 14018KT 24/14 A3004 RMK A01 T02370139  RH  054%=      5-min Rain = 0
KDO1 260232Z 15020G29KT 24/14 A3004 RMK A01 T02360137  RH  054%=      5-min Rain = 0
KDO1 260233Z 15021G30KT 24/13 A3004 RMK A01 T02360133  RH  052%=      5-min Rain = 0
KDO1 260234Z 15025G33KT 24/13 A3004 RMK A01 T02380131  RH  051%=      5-min Rain = 0
KDO1 260235Z 16023G30KT 24/13 A3004 RMK A01 T02390134  RH  052%=      5-min Rain = 0
KDO1 260236Z 16021KT 24/14 A3004 RMK A01 T02380136  RH  053%=      5-min Rain = 0
KDO1 260237Z 16023G31KT 24/14 A3004 RMK A01 T02360137  RH  054%=      5-min Rain = 0
KDO1 260238Z 16019G24KT 23/14 A3004 RMK A01 T02340138  RH  055%=      5-min Rain = 0
KDO1 260239Z 16018G25KT 23/14 A3004 RMK A01 T02320139  RH  056%=      5-min Rain = 0
KDO1 260240Z 16020G25KT 23/14 A3004 RMK A01 T02300138  RH  056%=      5-min Rain = 0
KDO1 260241Z 16020G25KT 23/14 A3004 RMK A01 T02290139  RH  057%=      5-min Rain = 0
KDO1 260242Z 16020G26KT 23/14 A3004 RMK A01 T02280137  RH  056%=      5-min Rain = 0
KDO1 260243Z 16019G25KT 23/14 A3004 RMK A01 T02280138  RH  057%=      5-min Rain = 0
KDO1 260244Z 16025G30KT 23/13 A3003 RMK A01 T02290134  RH  055%=      5-min Rain = 0
KDO1 260245Z 16017G22KT 23/13 A3003 RMK A01 T02300134  RH  054%=      5-min Rain = 0
KDO1 260246Z 16021G27KT 23/14 A3003 RMK A01 T02310135  RH  055%=      5-min Rain = 0
KDO1 260247Z 16018G23KT 23/14 A3003 RMK A01 T02300136  RH  055%=      5-min Rain = 0
KDO1 260248Z 16016G22KT 23/14 A3003 RMK A01 T02290136  RH  056%=      5-min Rain = 0
KDO1 260249Z 16022G32KT 23/14 A3002 RMK A01 T02280136  RH  056%=      5-min Rain = 0
KDO1 260250Z 16022G31KT 23/14 A3002 RMK A01 T02280137  RH  056%=      5-min Rain = 0
KDO1 260251Z 16023G28KT 23/14 A3002 RMK A01 T02280137  RH  056%=      5-min Rain = 0
KDO1 260252Z 16019G25KT 23/14 A3002 RMK A01 T02270137  RH  057%=      5-min Rain = 0
KDO1 260253Z 15018G25KT 23/14 A3002 RMK A01 T02270138  RH  057%=      5-min Rain = 0
KDO1 260254Z 15021G28KT 23/14 A3002 RMK A01 T02260138  RH  057%=      5-min Rain = 0
KDO1 260255Z 15022KT 23/14 A3002 RMK A01 T02260138  RH  058%=      5-min Rain = 0
KDO1 260256Z 15020G25KT 23/14 A3002 RMK A01 T02250137  RH  057%=      5-min Rain = 0
KDO1 260257Z 15021G26KT 23/14 A3002 RMK A01 T02250136  RH  057%=      5-min Rain = 0
KDO1 260258Z 15021G26KT 23/14 A3002 RMK A01 T02250136  RH  057%=      5-min Rain = 0
KDO1 260259Z 15018G23KT 23/14 A3002 RMK A01 T02250136  RH  057%=      5-min Rain = 0
KDO1 260300Z 16019G26KT 23/14 A3003 RMK A01 T02260135  RH  056%=      5-min Rain = 0
KDO1 260301Z 16017KT 23/13 A3003 RMK A01 T02270134  RH  056%=      5-min Rain = 0
KDO1 260302Z 16020G25KT 23/13 A3003 RMK A01 T02270133  RH  055%=      5-min Rain = 0
KDO1 260303Z 16019KT 23/13 A3003 RMK A01 T02290132  RH  054%=      5-min Rain = 0
KDO1 260304Z 16016G21KT 23/13 A3003 RMK A01 T02300134  RH  054%=      5-min Rain = 0
KDO1 260305Z 17017G24KT 23/13 A3004 RMK A01 T02300133  RH  054%=      5-min Rain = 0
KDO1 260306Z 18017G22KT 23/13 A3004 RMK A01 T02310132  RH  054%=      5-min Rain = 0
KDO1 260307Z 18018G24KT 23/13 A3004 RMK A01 T02310133  RH  054%=      5-min Rain = 0
KDO1 260308Z 19018KT 23/14 A3004 RMK A01 T02300135  RH  055%=      5-min Rain = 0
KDO1 260309Z 19016KT 23/14 A3004 RMK A01 T02290140  RH  057%=      5-min Rain = 0
KDO1 260310Z 20021KT 23/14 A3005 RMK A01 T02270140  RH  058%=      5-min Rain = 0
KDO1 260311Z 20021KT 22/14 A3004 RMK A01 T02240140  RH  059%=      5-min Rain = 0
KDO1 260312Z 19020G25KT 22/14 A3004 RMK A01 T02230141  RH  060%=      5-min Rain = 0
KDO1 260313Z 19018KT 22/14 A3005 RMK A01 T02220142  RH  061%=      5-min Rain = 0
KDO1 260314Z 19016KT 22/14 A3004 RMK A01 T02210144  RH  062%=      5-min Rain = 0
KDO1 260315Z 18018G23KT 22/14 A3004 RMK A01 T02190141  RH  061%=      5-min Rain = 0
KDO1 260316Z 18021G27KT 22/14 A3004 RMK A01 T02200139  RH  060%=      5-min Rain = 0
KDO1 260317Z 17024G29KT 22/14 A3004 RMK A01 T02220136  RH  058%=      5-min Rain = 0
KDO1 260318Z 17022G27KT 23/13 A3004 RMK A01 T02250133  RH  056%=      5-min Rain = 0
KDO1 260319Z 17024G30KT 23/13 A3004 RMK A01 T02290133  RH  055%=      5-min Rain = 0
KDO1 260320Z 17021G26KT 23/13 A3004 RMK A01 T02300131  RH  053%=      5-min Rain = 0
KDO1 260321Z 17024G30KT 23/13 A3004 RMK A01 T02320132  RH  054%=      5-min Rain = 0
KDO1 260322Z 17024G29KT 23/13 A3004 RMK A01 T02320130  RH  052%=      5-min Rain = 0
KDO1 260323Z 17023KT 23/13 A3004 RMK A01 T02330130  RH  052%=      5-min Rain = 0
KDO1 260324Z 17020G27KT 23/13 A3004 RMK A01 T02340131  RH  052%=      5-min Rain = 0
KDO1 260325Z 18022G29KT 23/13 A3004 RMK A01 T02340131  RH  052%=      5-min Rain = 0
KDO1 260326Z 18021G27KT 23/13 A3004 RMK A01 T02340132  RH  053%=      5-min Rain = 0
KDO1 260327Z 18021G30KT 23/13 A3004 RMK A01 T02340133  RH  053%=      5-min Rain = 0
KDO1 260328Z 17022G28KT 23/13 A3004 RMK A01 T02330134  RH  054%=      5-min Rain = 0
KDO1 260329Z 17022G28KT 23/13 A3004 RMK A01 T02320133  RH  053%=      5-min Rain = 0
KDO1 260330Z 17018G23KT 23/13 A3004 RMK A01 T02320134  RH  054%=      5-min Rain = 0
KDO1 260331Z 17018G26KT 23/13 A3004 RMK A01 T02320134  RH  054%=      5-min Rain = 0
KDO1 260332Z 17017G22KT 23/13 A3003 RMK A01 T02310134  RH  054%=      5-min Rain = 0
KDO1 260333Z 17016G21KT 23/13 A3003 RMK A01 T02310134  RH  054%=      5-min Rain = 0
KDO1 260334Z 17018KT 23/13 A3003 RMK A01 T02310133  RH  054%=      5-min Rain = 0
KDO1 260335Z 17018KT 23/13 A3003 RMK A01 T02310133  RH  054%=      5-min Rain = 0
KDO1 260336Z 17017KT 23/13 A3004 RMK A01 T02310133  RH  054%=      5-min Rain = 0
KDO1 260337Z 17014G21KT 23/13 A3004 RMK A01 T02310134  RH  054%=      5-min Rain = 0
KDO1 260338Z 16015KT 23/14 A3003 RMK A01 T02300135  RH  055%=      5-min Rain = 0
KDO1 260339Z 17015KT 23/14 A3003 RMK A01 T02290135  RH  055%=      5-min Rain = 0
KDO1 260340Z 16014G20KT 23/13 A3003 RMK A01 T02290134  RH  055%=      5-min Rain = 0
KDO1 260341Z 17016KT 23/13 A3003 RMK A01 T02290133  RH  055%=      5-min Rain = 0
KDO1 260342Z 17016G21KT 23/13 A3002 RMK A01 T02290133  RH  055%=      5-min Rain = 0
KDO1 260343Z 16013KT 23/13 A3002 RMK A01 T02290133  RH  055%=      5-min Rain = 0
KDO1 260344Z 17015KT 23/13 A3002 RMK A01 T02290134  RH  055%=      5-min Rain = 0
KDO1 260345Z 17014KT 23/13 A3002 RMK A01 T02290134  RH  055%=      5-min Rain = 0
KDO1 260346Z 16016G21KT 23/13 A3002 RMK A01 T02290133  RH  055%=      5-min Rain = 0
KDO1 260347Z 17014KT 23/13 A3002 RMK A01 T02290134  RH  055%=      5-min Rain = 0
KDO1 260348Z 17014KT 23/13 A3001 RMK A01 T02280134  RH  055%=      5-min Rain = 0
KDO1 260349Z 16013KT 23/14 A3001 RMK A01 T02280135  RH  055%=      5-min Rain = 0
KDO1 260350Z 16013KT 23/14 A3001 RMK A01 T02280135  RH  056%=      5-min Rain = 0
KDO1 260351Z 16013KT 23/13 A3001 RMK A01 T02270134  RH  056%=      5-min Rain = 0
KDO1 260352Z 16012KT 23/14 A3001 RMK A01 T02270136  RH  056%=      5-min Rain = 0
KDO1 260353Z 17013KT 23/14 A3001 RMK A01 T02260136  RH  057%=      5-min Rain = 0
KDO1 260354Z 17012KT 23/14 A3001 RMK A01 T02250137  RH  057%=      5-min Rain = 0
KDO1 260355Z 17013KT 23/14 A3001 RMK A01 T02250137  RH  057%=      5-min Rain = 0
KDO1 260356Z 17011KT 22/14 A3002 RMK A01 T02240137  RH  058%=      5-min Rain = 0
KDO1 260357Z 18012KT 22/14 A3002 RMK A01 T02240137  RH  058%=      5-min Rain = 0
KDO1 260358Z 18012KT 22/14 A3002 RMK A01 T02230138  RH  058%=      5-min Rain = 0
KDO1 260359Z 18010KT 22/14 A3001 RMK A01 T02230138  RH  058%=      5-min Rain = 0
KDO1 260400Z 18010KT 22/14 A3001 RMK A01 T02230137  RH  058%=      5-min Rain = 0
KDO1 260401Z 18011KT 22/14 A3001 RMK A01 T02230137  RH  058%=      5-min Rain = 0
KDO1 260402Z 18012KT 22/14 A3001 RMK A01 T02230137  RH  058%=      5-min Rain = 0
KDO1 260403Z 18012KT 22/14 A3001 RMK A01 T02230137  RH  058%=      5-min Rain = 0
KDO1 260404Z 19012KT 22/14 A3001 RMK A01 T02230137  RH  058%=      5-min Rain = 0
KDO1 260405Z 18012KT 22/14 A3001 RMK A01 T02230139  RH  059%=      5-min Rain = 0
KDO1 260406Z 19012KT 22/14 A3001 RMK A01 T02230139  RH  059%=      5-min Rain = 0
KDO1 260407Z 19010KT 22/14 A3001 RMK A01 T02230140  RH  059%=      5-min Rain = 0
KDO1 260408Z 19010KT 22/14 A3001 RMK A01 T02230141  RH  060%=      5-min Rain = 0
KDO1 260409Z 19010KT 22/14 A3001 RMK A01 T02220141  RH  060%=      5-min Rain = 0
KDO1 260410Z 19010KT 22/14 A3001 RMK A01 T02220141  RH  060%=      5-min Rain = 0
KDO1 260411Z 19010KT 22/14 A3001 RMK A01 T02210141  RH  060%=      5-min Rain = 0
KDO1 260412Z 19011KT 22/14 A3001 RMK A01 T02210141  RH  060%=      5-min Rain = 0
KDO1 260413Z 19011KT 22/14 A3001 RMK A01 T02210140  RH  060%=      5-min Rain = 0
KDO1 260414Z 19010KT 22/14 A3001 RMK A01 T02210140  RH  060%=      5-min Rain = 0
KDO1 260415Z 20011KT 22/14 A3001 RMK A01 T02210141  RH  060%=      5-min Rain = 0
KDO1 260416Z 20011KT 22/14 A3001 RMK A01 T02210141  RH  060%=      5-min Rain = 0
KDO1 260417Z 20013KT 22/14 A3001 RMK A01 T02210141  RH  060%=      5-min Rain = 0
KDO1 260418Z 20013KT 22/14 A3001 RMK A01 T02210140  RH  060%=      5-min Rain = 0
KDO1 260419Z 20011KT 22/14 A3001 RMK A01 T02210141  RH  060%=      5-min Rain = 0
KDO1 260420Z 20013KT 22/14 A3001 RMK A01 T02210140  RH  060%=      5-min Rain = 0
KDO1 260421Z 21011KT 22/14 A30 RMK A01 T02210141  RH  060%=      5-min Rain = 0
KDO1 260422Z 21012KT 22/14 A30 RMK A01 T02210141  RH  060%=      5-min Rain = 0
KDO1 260423Z 21011KT 22/14 A30 RMK A01 T02210141  RH  061%=      5-min Rain = 0
KDO1 260424Z 22012KT 22/14 A30 RMK A01 T02210140  RH  060%=      5-min Rain = 0
KDO1 260425Z 21010KT 22/14 A30 RMK A01 T02210140  RH  060%=      5-min Rain = 0
KDO1 260426Z 21010KT 22/14 A30 RMK A01 T02200140  RH  060%=      5-min Rain = 0
KDO1 260427Z 22010KT 22/14 A30 RMK A01 T02200140  RH  060%=      5-min Rain = 0
KDO1 260428Z 21008KT 22/14 A30 RMK A01 T02200141  RH  061%=      5-min Rain = 0
KDO1 260429Z 22010KT 22/14 A30 RMK A01 T02190143  RH  062%=      5-min Rain = 0
KDO1 260430Z 22009KT 22/14 A30 RMK A01 T02180141  RH  062%=      5-min Rain = 0
KDO1 260431Z 21008KT 22/14 A30 RMK A01 T02180142  RH  062%=      5-min Rain = 0
KDO1 260432Z 21008KT 22/14 A30 RMK A01 T02170142  RH  062%=      5-min Rain = 0
KDO1 260433Z 22008KT 22/14 A30 RMK A01 T02170142  RH  062%=      5-min Rain = 0
KDO1 260434Z 22009KT 22/14 A30 RMK A01 T02160142  RH  063%=      5-min Rain = 0
KDO1 260435Z 21008KT 22/14 A30 RMK A01 T02160141  RH  062%=      5-min Rain = 0
KDO1 260436Z 21009KT 22/14 A30 RMK A01 T02170141  RH  062%=      5-min Rain = 0
KDO1 260437Z 21009KT 22/14 A30 RMK A01 T02170140  RH  061%=      5-min Rain = 0
KDO1 260438Z 21009KT 22/14 A30 RMK A01 T02180140  RH  061%=      5-min Rain = 0
KDO1 260439Z 21009KT 22/14 A30 RMK A01 T02180141  RH  061%=      5-min Rain = 0
KDO1 260440Z 21009KT 22/14 A30 RMK A01 T02180141  RH  061%=      5-min Rain = 0
KDO1 260441Z 21009KT 22/14 A30 RMK A01 T02180141  RH  061%=      5-min Rain = 0
KDO1 260442Z 21009KT 22/14 A30 RMK A01 T02180139  RH  061%=      5-min Rain = 0
KDO1 260443Z 21008KT 22/14 A2999 RMK A01 T02180139  RH  061%=      5-min Rain = 0
KDO1 260444Z 21008KT 22/14 A2999 RMK A01 T02180140  RH  061%=      5-min Rain = 0
KDO1 260445Z 21008KT 22/14 A2999 RMK A01 T02180139  RH  061%=      5-min Rain = 0
KDO1 260446Z 21008KT 22/14 A2999 RMK A01 T02180138  RH  060%=      5-min Rain = 0
KDO1 260447Z 21007KT 22/14 A2999 RMK A01 T02190137  RH  060%=      5-min Rain = 0
KDO1 260448Z 21007KT 22/14 A2999 RMK A01 T02190137  RH  060%=      5-min Rain = 0
KDO1 260449Z 21007KT 22/14 A2999 RMK A01 T02190138  RH  060%=      5-min Rain = 0
KDO1 260450Z 21006KT 22/14 A2999 RMK A01 T02190138  RH  060%=      5-min Rain = 0
KDO1 260451Z 21005KT 22/14 A2999 RMK A01 T02190138  RH  060%=      5-min Rain = 0
KDO1 260452Z 21005KT 22/14 A2999 RMK A01 T02190138  RH  060%=      5-min Rain = 0
KDO1 260453Z 20005KT 22/14 A2999 RMK A01 T02190139  RH  061%=      5-min Rain = 0
KDO1 260454Z 20006KT 22/14 A2999 RMK A01 T02180139  RH  061%=      5-min Rain = 0
KDO1 260455Z 19006KT 22/14 A2999 RMK A01 T02180139  RH  061%=      5-min Rain = 0
KDO1 260456Z 19006KT 22/14 A2999 RMK A01 T02180139  RH  061%=      5-min Rain = 0
KDO1 260457Z 18005KT 22/14 A2999 RMK A01 T02180140  RH  061%=      5-min Rain = 0
KDO1 260458Z 17005KT 22/14 A2999 RMK A01 T02170140  RH  062%=      5-min Rain = 0
KDO1 260459Z 16003KT 22/14 A2999 RMK A01 T02170140  RH  062%=      5-min Rain = 0

Page generated in 0.1213 seconds.